<?xml version="1.0" encoding="UTF-8" standalone="no" ?>
<gpx xmlns="http://www.topografix.com/GPX/1/1" xmlns:xsi="http://www.w3.org/2001/XMLSchema-instance" xsi:schemaLocation="http://www.topografix.com/GPX/1/1 http://www.topografix.com/GPX/1/1/gpx.xsd" version="1.1" creator="VisuGPX - https://www.visugpx.com">
  <metadata>
    <name>13062959-A du 30 avril 19 (planifié)</name>
  </metadata>
  <trk>
    <name><![CDATA[13062959-A du 30 avril 19 (planifié)]]></name>
    <trkseg>
      <trkpt lat="45.57674" lon="5.97439">
        <ele>320</ele>
        <time>2021-05-15T15:27:30Z</time>
      </trkpt>
      <trkpt lat="45.57724" lon="5.97395">
        <ele>318</ele>
        <time>2021-05-15T15:28:48Z</time>
      </trkpt>
      <trkpt lat="45.57733" lon="5.97409">
        <ele>318</ele>
        <time>2021-05-15T15:29:06Z</time>
      </trkpt>
      <trkpt lat="45.57743" lon="5.97401">
        <ele>318</ele>
        <time>2021-05-15T15:29:21Z</time>
      </trkpt>
      <trkpt lat="45.57756" lon="5.9739">
        <ele>319</ele>
        <time>2021-05-15T15:29:42Z</time>
      </trkpt>
      <trkpt lat="45.57764" lon="5.97382">
        <ele>320</ele>
        <time>2021-05-15T15:29:55Z</time>
      </trkpt>
      <trkpt lat="45.57775" lon="5.97396">
        <ele>321</ele>
        <time>2021-05-15T15:30:14Z</time>
      </trkpt>
      <trkpt lat="45.57807" lon="5.97446">
        <ele>324</ele>
        <time>2021-05-15T15:31:18Z</time>
      </trkpt>
      <trkpt lat="45.57859" lon="5.97479">
        <ele>327</ele>
        <time>2021-05-15T15:32:33Z</time>
      </trkpt>
      <trkpt lat="45.57922" lon="5.97497">
        <ele>327</ele>
        <time>2021-05-15T15:33:59Z</time>
      </trkpt>
      <trkpt lat="45.57946" lon="5.97503">
        <ele>329</ele>
        <time>2021-05-15T15:34:32Z</time>
      </trkpt>
      <trkpt lat="45.57964" lon="5.9751">
        <ele>331</ele>
        <time>2021-05-15T15:34:57Z</time>
      </trkpt>
      <trkpt lat="45.58006" lon="5.97531">
        <ele>337</ele>
        <time>2021-05-15T15:35:56Z</time>
      </trkpt>
      <trkpt lat="45.58036" lon="5.97543">
        <ele>339</ele>
        <time>2021-05-15T15:36:38Z</time>
      </trkpt>
      <trkpt lat="45.5807" lon="5.97572">
        <ele>336</ele>
        <time>2021-05-15T15:37:30Z</time>
      </trkpt>
      <trkpt lat="45.58084" lon="5.97586">
        <ele>333</ele>
        <time>2021-05-15T15:37:53Z</time>
      </trkpt>
      <trkpt lat="45.58111" lon="5.97602">
        <ele>341</ele>
        <time>2021-05-15T15:38:32Z</time>
      </trkpt>
      <trkpt lat="45.5813" lon="5.97609">
        <ele>343</ele>
        <time>2021-05-15T15:38:58Z</time>
      </trkpt>
      <trkpt lat="45.58141" lon="5.97612">
        <ele>344</ele>
        <time>2021-05-15T15:39:13Z</time>
      </trkpt>
      <trkpt lat="45.58159" lon="5.97617">
        <ele>345</ele>
        <time>2021-05-15T15:39:38Z</time>
      </trkpt>
      <trkpt lat="45.58177" lon="5.97634">
        <ele>346</ele>
        <time>2021-05-15T15:40:07Z</time>
      </trkpt>
      <trkpt lat="45.58206" lon="5.97656">
        <ele>351</ele>
        <time>2021-05-15T15:40:50Z</time>
      </trkpt>
      <trkpt lat="45.58211" lon="5.97668">
        <ele>350</ele>
        <time>2021-05-15T15:41:03Z</time>
      </trkpt>
      <trkpt lat="45.58211" lon="5.97668">
        <ele>350</ele>
        <time>2021-05-15T15:41:03Z</time>
      </trkpt>
      <trkpt lat="45.58212" lon="5.97678">
        <ele>352</ele>
        <time>2021-05-15T15:41:13Z</time>
      </trkpt>
      <trkpt lat="45.58209" lon="5.97688">
        <ele>352</ele>
        <time>2021-05-15T15:41:23Z</time>
      </trkpt>
      <trkpt lat="45.58206" lon="5.97693">
        <ele>351</ele>
        <time>2021-05-15T15:41:29Z</time>
      </trkpt>
      <trkpt lat="45.58198" lon="5.97704">
        <ele>350</ele>
        <time>2021-05-15T15:41:44Z</time>
      </trkpt>
      <trkpt lat="45.58196" lon="5.97708">
        <ele>349</ele>
        <time>2021-05-15T15:41:49Z</time>
      </trkpt>
      <trkpt lat="45.58186" lon="5.97723">
        <ele>347</ele>
        <time>2021-05-15T15:42:08Z</time>
      </trkpt>
      <trkpt lat="45.58178" lon="5.97752">
        <ele>346</ele>
        <time>2021-05-15T15:42:37Z</time>
      </trkpt>
      <trkpt lat="45.58174" lon="5.97761">
        <ele>346</ele>
        <time>2021-05-15T15:42:47Z</time>
      </trkpt>
      <trkpt lat="45.58143" lon="5.97811">
        <ele>358</ele>
        <time>2021-05-15T15:43:49Z</time>
      </trkpt>
      <trkpt lat="45.58136" lon="5.97821">
        <ele>362</ele>
        <time>2021-05-15T15:44:03Z</time>
      </trkpt>
      <trkpt lat="45.58132" lon="5.97829">
        <ele>364</ele>
        <time>2021-05-15T15:44:12Z</time>
      </trkpt>
      <trkpt lat="45.5813" lon="5.9784">
        <ele>366</ele>
        <time>2021-05-15T15:44:22Z</time>
      </trkpt>
      <trkpt lat="45.58136" lon="5.97878">
        <ele>364</ele>
        <time>2021-05-15T15:44:59Z</time>
      </trkpt>
      <trkpt lat="45.58135" lon="5.97892">
        <ele>365</ele>
        <time>2021-05-15T15:45:12Z</time>
      </trkpt>
      <trkpt lat="45.58136" lon="5.97902">
        <ele>365</ele>
        <time>2021-05-15T15:45:21Z</time>
      </trkpt>
      <trkpt lat="45.58144" lon="5.97919">
        <ele>362</ele>
        <time>2021-05-15T15:45:41Z</time>
      </trkpt>
      <trkpt lat="45.58147" lon="5.97929">
        <ele>361</ele>
        <time>2021-05-15T15:45:51Z</time>
      </trkpt>
      <trkpt lat="45.58149" lon="5.97951">
        <ele>358</ele>
        <time>2021-05-15T15:46:11Z</time>
      </trkpt>
      <trkpt lat="45.58149" lon="5.97964">
        <ele>357</ele>
        <time>2021-05-15T15:46:24Z</time>
      </trkpt>
      <trkpt lat="45.58159" lon="5.97982">
        <ele>352</ele>
        <time>2021-05-15T15:46:45Z</time>
      </trkpt>
      <trkpt lat="45.58161" lon="5.98028">
        <ele>350</ele>
        <time>2021-05-15T15:47:28Z</time>
      </trkpt>
      <trkpt lat="45.58165" lon="5.98056">
        <ele>348</ele>
        <time>2021-05-15T15:47:55Z</time>
      </trkpt>
      <trkpt lat="45.58201" lon="5.98096">
        <ele>362</ele>
        <time>2021-05-15T15:48:56Z</time>
      </trkpt>
      <trkpt lat="45.58211" lon="5.98113">
        <ele>367</ele>
        <time>2021-05-15T15:49:16Z</time>
      </trkpt>
      <trkpt lat="45.58214" lon="5.9813">
        <ele>369</ele>
        <time>2021-05-15T15:49:33Z</time>
      </trkpt>
      <trkpt lat="45.58214" lon="5.98149">
        <ele>370</ele>
        <time>2021-05-15T15:49:50Z</time>
      </trkpt>
      <trkpt lat="45.5821" lon="5.98176">
        <ele>370</ele>
        <time>2021-05-15T15:50:16Z</time>
      </trkpt>
      <trkpt lat="45.58196" lon="5.9821">
        <ele>367</ele>
        <time>2021-05-15T15:50:53Z</time>
      </trkpt>
      <trkpt lat="45.58186" lon="5.98231">
        <ele>364</ele>
        <time>2021-05-15T15:51:17Z</time>
      </trkpt>
      <trkpt lat="45.58182" lon="5.98244">
        <ele>363</ele>
        <time>2021-05-15T15:51:30Z</time>
      </trkpt>
      <trkpt lat="45.58165" lon="5.98275">
        <ele>358</ele>
        <time>2021-05-15T15:52:07Z</time>
      </trkpt>
      <trkpt lat="45.5816" lon="5.9829">
        <ele>361</ele>
        <time>2021-05-15T15:52:22Z</time>
      </trkpt>
      <trkpt lat="45.5816" lon="5.98306">
        <ele>362</ele>
        <time>2021-05-15T15:52:37Z</time>
      </trkpt>
      <trkpt lat="45.58165" lon="5.98328">
        <ele>360</ele>
        <time>2021-05-15T15:52:59Z</time>
      </trkpt>
      <trkpt lat="45.58191" lon="5.98361">
        <ele>370</ele>
        <time>2021-05-15T15:53:45Z</time>
      </trkpt>
      <trkpt lat="45.582" lon="5.98378">
        <ele>374</ele>
        <time>2021-05-15T15:54:05Z</time>
      </trkpt>
      <trkpt lat="45.58204" lon="5.98396">
        <ele>375</ele>
        <time>2021-05-15T15:54:23Z</time>
      </trkpt>
      <trkpt lat="45.58204" lon="5.98418">
        <ele>376</ele>
        <time>2021-05-15T15:54:43Z</time>
      </trkpt>
      <trkpt lat="45.58201" lon="5.98442">
        <ele>376</ele>
        <time>2021-05-15T15:55:06Z</time>
      </trkpt>
      <trkpt lat="45.58193" lon="5.98461">
        <ele>374</ele>
        <time>2021-05-15T15:55:27Z</time>
      </trkpt>
      <trkpt lat="45.58182" lon="5.98483">
        <ele>370</ele>
        <time>2021-05-15T15:55:52Z</time>
      </trkpt>
      <trkpt lat="45.5818" lon="5.98486">
        <ele>370</ele>
        <time>2021-05-15T15:55:56Z</time>
      </trkpt>
      <trkpt lat="45.58164" lon="5.98503">
        <ele>365</ele>
        <time>2021-05-15T15:56:23Z</time>
      </trkpt>
      <trkpt lat="45.58152" lon="5.98519">
        <ele>370</ele>
        <time>2021-05-15T15:56:45Z</time>
      </trkpt>
      <trkpt lat="45.58152" lon="5.98524">
        <ele>371</ele>
        <time>2021-05-15T15:56:49Z</time>
      </trkpt>
      <trkpt lat="45.58141" lon="5.98552">
        <ele>376</ele>
        <time>2021-05-15T15:57:19Z</time>
      </trkpt>
      <trkpt lat="45.58139" lon="5.98561">
        <ele>377</ele>
        <time>2021-05-15T15:57:28Z</time>
      </trkpt>
      <trkpt lat="45.58141" lon="5.98564">
        <ele>377</ele>
        <time>2021-05-15T15:57:32Z</time>
      </trkpt>
      <trkpt lat="45.58157" lon="5.98563">
        <ele>375</ele>
        <time>2021-05-15T15:57:53Z</time>
      </trkpt>
      <trkpt lat="45.5817" lon="5.98568">
        <ele>377</ele>
        <time>2021-05-15T15:58:11Z</time>
      </trkpt>
      <trkpt lat="45.58186" lon="5.98549">
        <ele>382</ele>
        <time>2021-05-15T15:58:39Z</time>
      </trkpt>
      <trkpt lat="45.58188" lon="5.98551">
        <ele>383</ele>
        <time>2021-05-15T15:58:42Z</time>
      </trkpt>
      <trkpt lat="45.58187" lon="5.98556">
        <ele>384</ele>
        <time>2021-05-15T15:58:47Z</time>
      </trkpt>
      <trkpt lat="45.58179" lon="5.98574">
        <ele>383</ele>
        <time>2021-05-15T15:59:07Z</time>
      </trkpt>
      <trkpt lat="45.5818" lon="5.98576">
        <ele>384</ele>
        <time>2021-05-15T15:59:09Z</time>
      </trkpt>
      <trkpt lat="45.58191" lon="5.98563">
        <ele>387</ele>
        <time>2021-05-15T15:59:28Z</time>
      </trkpt>
      <trkpt lat="45.58193" lon="5.9857">
        <ele>390</ele>
        <time>2021-05-15T15:59:35Z</time>
      </trkpt>
      <trkpt lat="45.58188" lon="5.98586">
        <ele>390</ele>
        <time>2021-05-15T15:59:52Z</time>
      </trkpt>
      <trkpt lat="45.58191" lon="5.98585">
        <ele>392</ele>
        <time>2021-05-15T15:59:56Z</time>
      </trkpt>
      <trkpt lat="45.58194" lon="5.98581">
        <ele>393</ele>
        <time>2021-05-15T16:00:01Z</time>
      </trkpt>
      <trkpt lat="45.58197" lon="5.9858">
        <ele>394</ele>
        <time>2021-05-15T16:00:06Z</time>
      </trkpt>
      <trkpt lat="45.58198" lon="5.98594">
        <ele>397</ele>
        <time>2021-05-15T16:00:19Z</time>
      </trkpt>
      <trkpt lat="45.58204" lon="5.98611">
        <ele>404</ele>
        <time>2021-05-15T16:00:36Z</time>
      </trkpt>
      <trkpt lat="45.58206" lon="5.98624">
        <ele>407</ele>
        <time>2021-05-15T16:00:49Z</time>
      </trkpt>
      <trkpt lat="45.58205" lon="5.98628">
        <ele>408</ele>
        <time>2021-05-15T16:00:53Z</time>
      </trkpt>
      <trkpt lat="45.58183" lon="5.98634">
        <ele>397</ele>
        <time>2021-05-15T16:01:23Z</time>
      </trkpt>
      <trkpt lat="45.5818" lon="5.98641">
        <ele>397</ele>
        <time>2021-05-15T16:01:30Z</time>
      </trkpt>
      <trkpt lat="45.58184" lon="5.98674">
        <ele>406</ele>
        <time>2021-05-15T16:02:02Z</time>
      </trkpt>
      <trkpt lat="45.58182" lon="5.98694">
        <ele>410</ele>
        <time>2021-05-15T16:02:21Z</time>
      </trkpt>
      <trkpt lat="45.58178" lon="5.98708">
        <ele>412</ele>
        <time>2021-05-15T16:02:35Z</time>
      </trkpt>
      <trkpt lat="45.58174" lon="5.98717">
        <ele>413</ele>
        <time>2021-05-15T16:02:45Z</time>
      </trkpt>
      <trkpt lat="45.58173" lon="5.98728">
        <ele>415</ele>
        <time>2021-05-15T16:02:55Z</time>
      </trkpt>
      <trkpt lat="45.58174" lon="5.98737">
        <ele>418</ele>
        <time>2021-05-15T16:03:03Z</time>
      </trkpt>
      <trkpt lat="45.58179" lon="5.98742">
        <ele>421</ele>
        <time>2021-05-15T16:03:12Z</time>
      </trkpt>
      <trkpt lat="45.58191" lon="5.98764">
        <ele>431</ele>
        <time>2021-05-15T16:03:38Z</time>
      </trkpt>
      <trkpt lat="45.58195" lon="5.98776">
        <ele>435</ele>
        <time>2021-05-15T16:03:50Z</time>
      </trkpt>
      <trkpt lat="45.582" lon="5.98785">
        <ele>440</ele>
        <time>2021-05-15T16:04:01Z</time>
      </trkpt>
      <trkpt lat="45.58207" lon="5.98792">
        <ele>444</ele>
        <time>2021-05-15T16:04:12Z</time>
      </trkpt>
      <trkpt lat="45.58186" lon="5.98787">
        <ele>434</ele>
        <time>2021-05-15T16:04:41Z</time>
      </trkpt>
      <trkpt lat="45.58183" lon="5.98776">
        <ele>431</ele>
        <time>2021-05-15T16:04:52Z</time>
      </trkpt>
      <trkpt lat="45.58178" lon="5.98777">
        <ele>429</ele>
        <time>2021-05-15T16:04:58Z</time>
      </trkpt>
      <trkpt lat="45.58175" lon="5.98781">
        <ele>428</ele>
        <time>2021-05-15T16:05:04Z</time>
      </trkpt>
      <trkpt lat="45.58169" lon="5.98774">
        <ele>424</ele>
        <time>2021-05-15T16:05:14Z</time>
      </trkpt>
      <trkpt lat="45.58161" lon="5.9877">
        <ele>419</ele>
        <time>2021-05-15T16:05:26Z</time>
      </trkpt>
      <trkpt lat="45.58139" lon="5.98779">
        <ele>409</ele>
        <time>2021-05-15T16:05:56Z</time>
      </trkpt>
      <trkpt lat="45.58135" lon="5.98788">
        <ele>409</ele>
        <time>2021-05-15T16:06:06Z</time>
      </trkpt>
      <trkpt lat="45.58124" lon="5.98801">
        <ele>405</ele>
        <time>2021-05-15T16:06:25Z</time>
      </trkpt>
      <trkpt lat="45.58117" lon="5.98816">
        <ele>403</ele>
        <time>2021-05-15T16:06:42Z</time>
      </trkpt>
      <trkpt lat="45.58113" lon="5.98846">
        <ele>406</ele>
        <time>2021-05-15T16:07:10Z</time>
      </trkpt>
      <trkpt lat="45.5812" lon="5.98874">
        <ele>415</ele>
        <time>2021-05-15T16:07:38Z</time>
      </trkpt>
      <trkpt lat="45.58116" lon="5.98894">
        <ele>416</ele>
        <time>2021-05-15T16:07:58Z</time>
      </trkpt>
      <trkpt lat="45.58125" lon="5.98931">
        <ele>428</ele>
        <time>2021-05-15T16:08:34Z</time>
      </trkpt>
      <trkpt lat="45.58108" lon="5.98985">
        <ele>429</ele>
        <time>2021-05-15T16:09:30Z</time>
      </trkpt>
      <trkpt lat="45.58104" lon="5.98991">
        <ele>428</ele>
        <time>2021-05-15T16:09:37Z</time>
      </trkpt>
      <trkpt lat="45.58098" lon="5.99026">
        <ele>431</ele>
        <time>2021-05-15T16:10:11Z</time>
      </trkpt>
      <trkpt lat="45.58084" lon="5.99048">
        <ele>427</ele>
        <time>2021-05-15T16:10:39Z</time>
      </trkpt>
      <trkpt lat="45.58077" lon="5.9907">
        <ele>427</ele>
        <time>2021-05-15T16:11:01Z</time>
      </trkpt>
      <trkpt lat="45.58075" lon="5.99081">
        <ele>428</ele>
        <time>2021-05-15T16:11:12Z</time>
      </trkpt>
      <trkpt lat="45.58076" lon="5.99089">
        <ele>428</ele>
        <time>2021-05-15T16:11:19Z</time>
      </trkpt>
      <trkpt lat="45.58077" lon="5.99092">
        <ele>429</ele>
        <time>2021-05-15T16:11:23Z</time>
      </trkpt>
      <trkpt lat="45.58082" lon="5.99091">
        <ele>432</ele>
        <time>2021-05-15T16:11:29Z</time>
      </trkpt>
      <trkpt lat="45.58092" lon="5.99095">
        <ele>437</ele>
        <time>2021-05-15T16:11:43Z</time>
      </trkpt>
      <trkpt lat="45.581" lon="5.99098">
        <ele>441</ele>
        <time>2021-05-15T16:11:54Z</time>
      </trkpt>
      <trkpt lat="45.58104" lon="5.9909">
        <ele>444</ele>
        <time>2021-05-15T16:12:03Z</time>
      </trkpt>
      <trkpt lat="45.58113" lon="5.99092">
        <ele>448</ele>
        <time>2021-05-15T16:12:16Z</time>
      </trkpt>
      <trkpt lat="45.58112" lon="5.99105">
        <ele>448</ele>
        <time>2021-05-15T16:12:28Z</time>
      </trkpt>
      <trkpt lat="45.5812" lon="5.99118">
        <ele>452</ele>
        <time>2021-05-15T16:12:44Z</time>
      </trkpt>
      <trkpt lat="45.58119" lon="5.99141">
        <ele>451</ele>
        <time>2021-05-15T16:13:05Z</time>
      </trkpt>
      <trkpt lat="45.58125" lon="5.99153">
        <ele>454</ele>
        <time>2021-05-15T16:13:19Z</time>
      </trkpt>
      <trkpt lat="45.58131" lon="5.9917">
        <ele>457</ele>
        <time>2021-05-15T16:13:37Z</time>
      </trkpt>
      <trkpt lat="45.5813" lon="5.99178">
        <ele>456</ele>
        <time>2021-05-15T16:13:45Z</time>
      </trkpt>
      <trkpt lat="45.58128" lon="5.99184">
        <ele>455</ele>
        <time>2021-05-15T16:13:51Z</time>
      </trkpt>
      <trkpt lat="45.58129" lon="5.99212">
        <ele>453</ele>
        <time>2021-05-15T16:14:17Z</time>
      </trkpt>
      <trkpt lat="45.58131" lon="5.99226">
        <ele>454</ele>
        <time>2021-05-15T16:14:30Z</time>
      </trkpt>
      <trkpt lat="45.58135" lon="5.99233">
        <ele>456</ele>
        <time>2021-05-15T16:14:39Z</time>
      </trkpt>
      <trkpt lat="45.58155" lon="5.99244">
        <ele>468</ele>
        <time>2021-05-15T16:15:07Z</time>
      </trkpt>
      <trkpt lat="45.58174" lon="5.99259">
        <ele>478</ele>
        <time>2021-05-15T16:15:36Z</time>
      </trkpt>
      <trkpt lat="45.58174" lon="5.99264">
        <ele>478</ele>
        <time>2021-05-15T16:15:41Z</time>
      </trkpt>
      <trkpt lat="45.58176" lon="5.99288">
        <ele>476</ele>
        <time>2021-05-15T16:16:04Z</time>
      </trkpt>
      <trkpt lat="45.58176" lon="5.99293">
        <ele>476</ele>
        <time>2021-05-15T16:16:08Z</time>
      </trkpt>
      <trkpt lat="45.58184" lon="5.99313">
        <ele>477</ele>
        <time>2021-05-15T16:16:30Z</time>
      </trkpt>
      <trkpt lat="45.58198" lon="5.99324">
        <ele>481</ele>
        <time>2021-05-15T16:16:51Z</time>
      </trkpt>
      <trkpt lat="45.58201" lon="5.99325">
        <ele>482</ele>
        <time>2021-05-15T16:16:55Z</time>
      </trkpt>
      <trkpt lat="45.5822" lon="5.99349">
        <ele>485</ele>
        <time>2021-05-15T16:17:29Z</time>
      </trkpt>
      <trkpt lat="45.5822" lon="5.99353">
        <ele>484</ele>
        <time>2021-05-15T16:17:33Z</time>
      </trkpt>
      <trkpt lat="45.58215" lon="5.99354">
        <ele>483</ele>
        <time>2021-05-15T16:17:40Z</time>
      </trkpt>
      <trkpt lat="45.58212" lon="5.9937">
        <ele>479</ele>
        <time>2021-05-15T16:17:55Z</time>
      </trkpt>
      <trkpt lat="45.58214" lon="5.99394">
        <ele>476</ele>
        <time>2021-05-15T16:18:18Z</time>
      </trkpt>
      <trkpt lat="45.58218" lon="5.99411">
        <ele>475</ele>
        <time>2021-05-15T16:18:34Z</time>
      </trkpt>
      <trkpt lat="45.58227" lon="5.99428">
        <ele>477</ele>
        <time>2021-05-15T16:18:54Z</time>
      </trkpt>
      <trkpt lat="45.58228" lon="5.99435">
        <ele>477</ele>
        <time>2021-05-15T16:19:01Z</time>
      </trkpt>
      <trkpt lat="45.58239" lon="5.99453">
        <ele>480</ele>
        <time>2021-05-15T16:19:23Z</time>
      </trkpt>
      <trkpt lat="45.58254" lon="5.99465">
        <ele>486</ele>
        <time>2021-05-15T16:19:46Z</time>
      </trkpt>
      <trkpt lat="45.58253" lon="5.99476">
        <ele>485</ele>
        <time>2021-05-15T16:19:57Z</time>
      </trkpt>
      <trkpt lat="45.58249" lon="5.99486">
        <ele>482</ele>
        <time>2021-05-15T16:20:07Z</time>
      </trkpt>
      <trkpt lat="45.58246" lon="5.99505">
        <ele>479</ele>
        <time>2021-05-15T16:20:25Z</time>
      </trkpt>
      <trkpt lat="45.58254" lon="5.99511">
        <ele>483</ele>
        <time>2021-05-15T16:20:38Z</time>
      </trkpt>
      <trkpt lat="45.5826" lon="5.99508">
        <ele>487</ele>
        <time>2021-05-15T16:20:46Z</time>
      </trkpt>
      <trkpt lat="45.5826" lon="5.99528">
        <ele>487</ele>
        <time>2021-05-15T16:21:05Z</time>
      </trkpt>
      <trkpt lat="45.58262" lon="5.99545">
        <ele>489</ele>
        <time>2021-05-15T16:21:21Z</time>
      </trkpt>
      <trkpt lat="45.58251" lon="5.99607">
        <ele>483</ele>
        <time>2021-05-15T16:22:21Z</time>
      </trkpt>
      <trkpt lat="45.5825" lon="5.99621">
        <ele>483</ele>
        <time>2021-05-15T16:22:34Z</time>
      </trkpt>
      <trkpt lat="45.58255" lon="5.99618">
        <ele>486</ele>
        <time>2021-05-15T16:22:41Z</time>
      </trkpt>
      <trkpt lat="45.58264" lon="5.99619">
        <ele>491</ele>
        <time>2021-05-15T16:22:53Z</time>
      </trkpt>
      <trkpt lat="45.58254" lon="5.9965">
        <ele>485</ele>
        <time>2021-05-15T16:23:25Z</time>
      </trkpt>
      <trkpt lat="45.58259" lon="5.9968">
        <ele>491</ele>
        <time>2021-05-15T16:23:54Z</time>
      </trkpt>
      <trkpt lat="45.58252" lon="5.99702">
        <ele>491</ele>
        <time>2021-05-15T16:24:16Z</time>
      </trkpt>
      <trkpt lat="45.58254" lon="5.99709">
        <ele>494</ele>
        <time>2021-05-15T16:24:23Z</time>
      </trkpt>
      <trkpt lat="45.58258" lon="5.99709">
        <ele>496</ele>
        <time>2021-05-15T16:24:29Z</time>
      </trkpt>
      <trkpt lat="45.58269" lon="5.99715">
        <ele>504</ele>
        <time>2021-05-15T16:24:44Z</time>
      </trkpt>
      <trkpt lat="45.58273" lon="5.99715">
        <ele>506</ele>
        <time>2021-05-15T16:24:50Z</time>
      </trkpt>
      <trkpt lat="45.58269" lon="5.99715">
        <ele>504</ele>
        <time>2021-05-15T16:24:55Z</time>
      </trkpt>
      <trkpt lat="45.58258" lon="5.99709">
        <ele>496</ele>
        <time>2021-05-15T16:25:11Z</time>
      </trkpt>
      <trkpt lat="45.58254" lon="5.99709">
        <ele>494</ele>
        <time>2021-05-15T16:25:16Z</time>
      </trkpt>
      <trkpt lat="45.58257" lon="5.9972">
        <ele>498</ele>
        <time>2021-05-15T16:25:27Z</time>
      </trkpt>
      <trkpt lat="45.58248" lon="5.99734">
        <ele>496</ele>
        <time>2021-05-15T16:25:45Z</time>
      </trkpt>
      <trkpt lat="45.58238" lon="5.99815">
        <ele>500</ele>
        <time>2021-05-15T16:27:02Z</time>
      </trkpt>
      <trkpt lat="45.58238" lon="5.99833">
        <ele>503</ele>
        <time>2021-05-15T16:27:18Z</time>
      </trkpt>
      <trkpt lat="45.5824" lon="5.99836">
        <ele>505</ele>
        <time>2021-05-15T16:27:22Z</time>
      </trkpt>
      <trkpt lat="45.58239" lon="5.99845">
        <ele>504</ele>
        <time>2021-05-15T16:27:31Z</time>
      </trkpt>
      <trkpt lat="45.58231" lon="5.99872">
        <ele>497</ele>
        <time>2021-05-15T16:27:58Z</time>
      </trkpt>
      <trkpt lat="45.5823" lon="5.99881">
        <ele>496</ele>
        <time>2021-05-15T16:28:07Z</time>
      </trkpt>
      <trkpt lat="45.58235" lon="5.99887">
        <ele>502</ele>
        <time>2021-05-15T16:28:15Z</time>
      </trkpt>
      <trkpt lat="45.58247" lon="5.99918">
        <ele>515</ele>
        <time>2021-05-15T16:28:49Z</time>
      </trkpt>
      <trkpt lat="45.58249" lon="5.99934">
        <ele>513</ele>
        <time>2021-05-15T16:29:04Z</time>
      </trkpt>
      <trkpt lat="45.58249" lon="5.99957">
        <ele>507</ele>
        <time>2021-05-15T16:29:25Z</time>
      </trkpt>
      <trkpt lat="45.58262" lon="5.99977">
        <ele>509</ele>
        <time>2021-05-15T16:29:51Z</time>
      </trkpt>
      <trkpt lat="45.58268" lon="6.00019">
        <ele>508</ele>
        <time>2021-05-15T16:30:31Z</time>
      </trkpt>
      <trkpt lat="45.58278" lon="6.0004">
        <ele>514</ele>
        <time>2021-05-15T16:30:54Z</time>
      </trkpt>
      <trkpt lat="45.58277" lon="6.00071">
        <ele>514</ele>
        <time>2021-05-15T16:31:23Z</time>
      </trkpt>
      <trkpt lat="45.5828" lon="6.00079">
        <ele>516</ele>
        <time>2021-05-15T16:31:32Z</time>
      </trkpt>
      <trkpt lat="45.58272" lon="6.00096">
        <ele>511</ele>
        <time>2021-05-15T16:31:51Z</time>
      </trkpt>
      <trkpt lat="45.58272" lon="6.00107">
        <ele>511</ele>
        <time>2021-05-15T16:32:01Z</time>
      </trkpt>
      <trkpt lat="45.58275" lon="6.00116">
        <ele>513</ele>
        <time>2021-05-15T16:32:11Z</time>
      </trkpt>
      <trkpt lat="45.58275" lon="6.00121">
        <ele>514</ele>
        <time>2021-05-15T16:32:15Z</time>
      </trkpt>
      <trkpt lat="45.58263" lon="6.00139">
        <ele>506</ele>
        <time>2021-05-15T16:32:38Z</time>
      </trkpt>
      <trkpt lat="45.58263" lon="6.0015">
        <ele>507</ele>
        <time>2021-05-15T16:32:49Z</time>
      </trkpt>
      <trkpt lat="45.58267" lon="6.00164">
        <ele>510</ele>
        <time>2021-05-15T16:33:03Z</time>
      </trkpt>
      <trkpt lat="45.58282" lon="6.00243">
        <ele>523</ele>
        <time>2021-05-15T16:34:19Z</time>
      </trkpt>
      <trkpt lat="45.58312" lon="6.00331">
        <ele>538</ele>
        <time>2021-05-15T16:35:51Z</time>
      </trkpt>
      <trkpt lat="45.58302" lon="6.00302">
        <ele>533</ele>
        <time>2021-05-15T16:36:21Z</time>
      </trkpt>
      <trkpt lat="45.58296" lon="6.00333">
        <ele>530</ele>
        <time>2021-05-15T16:36:51Z</time>
      </trkpt>
      <trkpt lat="45.58292" lon="6.00348">
        <ele>527</ele>
        <time>2021-05-15T16:37:06Z</time>
      </trkpt>
      <trkpt lat="45.58283" lon="6.00355">
        <ele>523</ele>
        <time>2021-05-15T16:37:20Z</time>
      </trkpt>
      <trkpt lat="45.58267" lon="6.00381">
        <ele>513</ele>
        <time>2021-05-15T16:37:52Z</time>
      </trkpt>
      <trkpt lat="45.58263" lon="6.00371">
        <ele>512</ele>
        <time>2021-05-15T16:38:03Z</time>
      </trkpt>
      <trkpt lat="45.58258" lon="6.00384">
        <ele>509</ele>
        <time>2021-05-15T16:38:17Z</time>
      </trkpt>
      <trkpt lat="45.58254" lon="6.00379">
        <ele>507</ele>
        <time>2021-05-15T16:38:24Z</time>
      </trkpt>
      <trkpt lat="45.58249" lon="6.00397">
        <ele>503</ele>
        <time>2021-05-15T16:38:42Z</time>
      </trkpt>
      <trkpt lat="45.5825" lon="6.00452">
        <ele>502</ele>
        <time>2021-05-15T16:39:33Z</time>
      </trkpt>
      <trkpt lat="45.58259" lon="6.00501">
        <ele>504</ele>
        <time>2021-05-15T16:40:20Z</time>
      </trkpt>
      <trkpt lat="45.58232" lon="6.00558">
        <ele>492</ele>
        <time>2021-05-15T16:41:25Z</time>
      </trkpt>
      <trkpt lat="45.5823" lon="6.00566">
        <ele>491</ele>
        <time>2021-05-15T16:41:33Z</time>
      </trkpt>
      <trkpt lat="45.5823" lon="6.00593">
        <ele>491</ele>
        <time>2021-05-15T16:41:58Z</time>
      </trkpt>
      <trkpt lat="45.58238" lon="6.00654">
        <ele>495</ele>
        <time>2021-05-15T16:42:56Z</time>
      </trkpt>
      <trkpt lat="45.58239" lon="6.0067">
        <ele>495</ele>
        <time>2021-05-15T16:43:11Z</time>
      </trkpt>
      <trkpt lat="45.5823" lon="6.00687">
        <ele>490</ele>
        <time>2021-05-15T16:43:31Z</time>
      </trkpt>
      <trkpt lat="45.58227" lon="6.00705">
        <ele>488</ele>
        <time>2021-05-15T16:43:48Z</time>
      </trkpt>
      <trkpt lat="45.58229" lon="6.00742">
        <ele>488</ele>
        <time>2021-05-15T16:44:23Z</time>
      </trkpt>
      <trkpt lat="45.58244" lon="6.00794">
        <ele>490</ele>
        <time>2021-05-15T16:45:15Z</time>
      </trkpt>
      <trkpt lat="45.58265" lon="6.00834">
        <ele>493</ele>
        <time>2021-05-15T16:46:02Z</time>
      </trkpt>
      <trkpt lat="45.58297" lon="6.00871">
        <ele>498</ele>
        <time>2021-05-15T16:46:57Z</time>
      </trkpt>
      <trkpt lat="45.58313" lon="6.00893">
        <ele>499</ele>
        <time>2021-05-15T16:47:27Z</time>
      </trkpt>
      <trkpt lat="45.58364" lon="6.00942">
        <ele>511</ele>
        <time>2021-05-15T16:48:49Z</time>
      </trkpt>
      <trkpt lat="45.58385" lon="6.00972">
        <ele>516</ele>
        <time>2021-05-15T16:49:28Z</time>
      </trkpt>
      <trkpt lat="45.58393" lon="6.00986">
        <ele>518</ele>
        <time>2021-05-15T16:49:45Z</time>
      </trkpt>
      <trkpt lat="45.58394" lon="6.0101">
        <ele>518</ele>
        <time>2021-05-15T16:50:07Z</time>
      </trkpt>
      <trkpt lat="45.58385" lon="6.01046">
        <ele>520</ele>
        <time>2021-05-15T16:50:43Z</time>
      </trkpt>
      <trkpt lat="45.58372" lon="6.01054">
        <ele>518</ele>
        <time>2021-05-15T16:51:02Z</time>
      </trkpt>
      <trkpt lat="45.58363" lon="6.01056">
        <ele>515</ele>
        <time>2021-05-15T16:51:14Z</time>
      </trkpt>
      <trkpt lat="45.58346" lon="6.01064">
        <ele>512</ele>
        <time>2021-05-15T16:51:38Z</time>
      </trkpt>
      <trkpt lat="45.58342" lon="6.01083">
        <ele>513</ele>
        <time>2021-05-15T16:51:57Z</time>
      </trkpt>
      <trkpt lat="45.58335" lon="6.01094">
        <ele>514</ele>
        <time>2021-05-15T16:52:11Z</time>
      </trkpt>
      <trkpt lat="45.58325" lon="6.01095">
        <ele>511</ele>
        <time>2021-05-15T16:52:24Z</time>
      </trkpt>
      <trkpt lat="45.58311" lon="6.011">
        <ele>508</ele>
        <time>2021-05-15T16:52:43Z</time>
      </trkpt>
      <trkpt lat="45.58272" lon="6.01101">
        <ele>497</ele>
        <time>2021-05-15T16:53:35Z</time>
      </trkpt>
      <trkpt lat="45.5826" lon="6.01095">
        <ele>493</ele>
        <time>2021-05-15T16:53:52Z</time>
      </trkpt>
      <trkpt lat="45.5825" lon="6.01085">
        <ele>490</ele>
        <time>2021-05-15T16:54:08Z</time>
      </trkpt>
      <trkpt lat="45.58243" lon="6.01085">
        <ele>487</ele>
        <time>2021-05-15T16:54:18Z</time>
      </trkpt>
      <trkpt lat="45.58221" lon="6.01098">
        <ele>478</ele>
        <time>2021-05-15T16:54:50Z</time>
      </trkpt>
      <trkpt lat="45.58223" lon="6.01093">
        <ele>479</ele>
        <time>2021-05-15T16:54:55Z</time>
      </trkpt>
      <trkpt lat="45.58235" lon="6.01073">
        <ele>482</ele>
        <time>2021-05-15T16:55:20Z</time>
      </trkpt>
      <trkpt lat="45.58251" lon="6.01065">
        <ele>487</ele>
        <time>2021-05-15T16:55:42Z</time>
      </trkpt>
      <trkpt lat="45.58266" lon="6.01075">
        <ele>493</ele>
        <time>2021-05-15T16:56:04Z</time>
      </trkpt>
      <trkpt lat="45.58268" lon="6.01071">
        <ele>492</ele>
        <time>2021-05-15T16:56:09Z</time>
      </trkpt>
      <trkpt lat="45.5826" lon="6.01061">
        <ele>489</ele>
        <time>2021-05-15T16:56:23Z</time>
      </trkpt>
      <trkpt lat="45.58267" lon="6.01063">
        <ele>491</ele>
        <time>2021-05-15T16:56:33Z</time>
      </trkpt>
      <trkpt lat="45.58261" lon="6.01054">
        <ele>488</ele>
        <time>2021-05-15T16:56:44Z</time>
      </trkpt>
      <trkpt lat="45.5828" lon="6.01041">
        <ele>490</ele>
        <time>2021-05-15T16:57:12Z</time>
      </trkpt>
      <trkpt lat="45.58277" lon="6.01013">
        <ele>484</ele>
        <time>2021-05-15T16:57:39Z</time>
      </trkpt>
      <trkpt lat="45.58268" lon="6.01011">
        <ele>482</ele>
        <time>2021-05-15T16:57:51Z</time>
      </trkpt>
      <trkpt lat="45.58211" lon="6.00969">
        <ele>455</ele>
        <time>2021-05-15T16:59:17Z</time>
      </trkpt>
      <trkpt lat="45.58202" lon="6.00971">
        <ele>451</ele>
        <time>2021-05-15T16:59:29Z</time>
      </trkpt>
      <trkpt lat="45.58204" lon="6.00963">
        <ele>451</ele>
        <time>2021-05-15T16:59:37Z</time>
      </trkpt>
      <trkpt lat="45.58194" lon="6.00973">
        <ele>447</ele>
        <time>2021-05-15T16:59:53Z</time>
      </trkpt>
      <trkpt lat="45.58189" lon="6.00975">
        <ele>445</ele>
        <time>2021-05-15T17:00:00Z</time>
      </trkpt>
      <trkpt lat="45.58186" lon="6.00965">
        <ele>442</ele>
        <time>2021-05-15T17:00:10Z</time>
      </trkpt>
      <trkpt lat="45.58182" lon="6.00974">
        <ele>441</ele>
        <time>2021-05-15T17:00:20Z</time>
      </trkpt>
      <trkpt lat="45.58181" lon="6.01007">
        <ele>444</ele>
        <time>2021-05-15T17:00:51Z</time>
      </trkpt>
      <trkpt lat="45.58177" lon="6.01021">
        <ele>445</ele>
        <time>2021-05-15T17:01:05Z</time>
      </trkpt>
      <trkpt lat="45.58173" lon="6.01032">
        <ele>446</ele>
        <time>2021-05-15T17:01:16Z</time>
      </trkpt>
      <trkpt lat="45.58169" lon="6.01037">
        <ele>445</ele>
        <time>2021-05-15T17:01:24Z</time>
      </trkpt>
      <trkpt lat="45.58155" lon="6.01044">
        <ele>443</ele>
        <time>2021-05-15T17:01:43Z</time>
      </trkpt>
      <trkpt lat="45.58149" lon="6.01039">
        <ele>441</ele>
        <time>2021-05-15T17:01:53Z</time>
      </trkpt>
      <trkpt lat="45.58142" lon="6.0104">
        <ele>440</ele>
        <time>2021-05-15T17:02:02Z</time>
      </trkpt>
      <trkpt lat="45.5815" lon="6.01046">
        <ele>443</ele>
        <time>2021-05-15T17:02:14Z</time>
      </trkpt>
      <trkpt lat="45.58137" lon="6.01046">
        <ele>440</ele>
        <time>2021-05-15T17:02:31Z</time>
      </trkpt>
      <trkpt lat="45.58134" lon="6.01048">
        <ele>440</ele>
        <time>2021-05-15T17:02:36Z</time>
      </trkpt>
      <trkpt lat="45.58129" lon="6.01068">
        <ele>443</ele>
        <time>2021-05-15T17:02:56Z</time>
      </trkpt>
      <trkpt lat="45.58116" lon="6.01078">
        <ele>441</ele>
        <time>2021-05-15T17:03:15Z</time>
      </trkpt>
      <trkpt lat="45.58111" lon="6.01077">
        <ele>440</ele>
        <time>2021-05-15T17:03:22Z</time>
      </trkpt>
      <trkpt lat="45.58097" lon="6.01081">
        <ele>438</ele>
        <time>2021-05-15T17:03:41Z</time>
      </trkpt>
      <trkpt lat="45.58091" lon="6.01078">
        <ele>436</ele>
        <time>2021-05-15T17:03:50Z</time>
      </trkpt>
      <trkpt lat="45.58083" lon="6.01069">
        <ele>433</ele>
        <time>2021-05-15T17:04:03Z</time>
      </trkpt>
      <trkpt lat="45.58064" lon="6.0106">
        <ele>438</ele>
        <time>2021-05-15T17:04:30Z</time>
      </trkpt>
      <trkpt lat="45.5806" lon="6.01059">
        <ele>439</ele>
        <time>2021-05-15T17:04:35Z</time>
      </trkpt>
      <trkpt lat="45.58058" lon="6.01061">
        <ele>440</ele>
        <time>2021-05-15T17:04:39Z</time>
      </trkpt>
      <trkpt lat="45.58057" lon="6.01055">
        <ele>440</ele>
        <time>2021-05-15T17:04:44Z</time>
      </trkpt>
      <trkpt lat="45.58049" lon="6.01042">
        <ele>441</ele>
        <time>2021-05-15T17:05:01Z</time>
      </trkpt>
      <trkpt lat="45.58047" lon="6.01052">
        <ele>443</ele>
        <time>2021-05-15T17:05:10Z</time>
      </trkpt>
      <trkpt lat="45.5804" lon="6.0104">
        <ele>444</ele>
        <time>2021-05-15T17:05:25Z</time>
      </trkpt>
      <trkpt lat="45.58016" lon="6.01012">
        <ele>451</ele>
        <time>2021-05-15T17:06:06Z</time>
      </trkpt>
      <trkpt lat="45.58008" lon="6.01006">
        <ele>453</ele>
        <time>2021-05-15T17:06:18Z</time>
      </trkpt>
      <trkpt lat="45.58005" lon="6.01003">
        <ele>454</ele>
        <time>2021-05-15T17:06:23Z</time>
      </trkpt>
      <trkpt lat="45.57997" lon="6.01007">
        <ele>457</ele>
        <time>2021-05-15T17:06:34Z</time>
      </trkpt>
      <trkpt lat="45.57994" lon="6.00997">
        <ele>458</ele>
        <time>2021-05-15T17:06:45Z</time>
      </trkpt>
      <trkpt lat="45.57989" lon="6.01001">
        <ele>460</ele>
        <time>2021-05-15T17:06:52Z</time>
      </trkpt>
      <trkpt lat="45.57983" lon="6.01003">
        <ele>462</ele>
        <time>2021-05-15T17:07:01Z</time>
      </trkpt>
      <trkpt lat="45.57983" lon="6.00999">
        <ele>461</ele>
        <time>2021-05-15T17:07:04Z</time>
      </trkpt>
      <trkpt lat="45.57977" lon="6.00997">
        <ele>464</ele>
        <time>2021-05-15T17:07:12Z</time>
      </trkpt>
      <trkpt lat="45.57979" lon="6.00992">
        <ele>464</ele>
        <time>2021-05-15T17:07:18Z</time>
      </trkpt>
      <trkpt lat="45.57983" lon="6.00991">
        <ele>462</ele>
        <time>2021-05-15T17:07:23Z</time>
      </trkpt>
      <trkpt lat="45.57984" lon="6.00986">
        <ele>463</ele>
        <time>2021-05-15T17:07:28Z</time>
      </trkpt>
      <trkpt lat="45.57982" lon="6.00984">
        <ele>464</ele>
        <time>2021-05-15T17:07:31Z</time>
      </trkpt>
      <trkpt lat="45.57983" lon="6.00978">
        <ele>464</ele>
        <time>2021-05-15T17:07:37Z</time>
      </trkpt>
      <trkpt lat="45.57983" lon="6.00974">
        <ele>465</ele>
        <time>2021-05-15T17:07:41Z</time>
      </trkpt>
      <trkpt lat="45.57971" lon="6.00977">
        <ele>467</ele>
        <time>2021-05-15T17:07:57Z</time>
      </trkpt>
      <trkpt lat="45.57967" lon="6.00981">
        <ele>468</ele>
        <time>2021-05-15T17:08:04Z</time>
      </trkpt>
      <trkpt lat="45.57961" lon="6.0098">
        <ele>470</ele>
        <time>2021-05-15T17:08:12Z</time>
      </trkpt>
      <trkpt lat="45.57964" lon="6.00975">
        <ele>469</ele>
        <time>2021-05-15T17:08:18Z</time>
      </trkpt>
      <trkpt lat="45.57964" lon="6.00971">
        <ele>470</ele>
        <time>2021-05-15T17:08:22Z</time>
      </trkpt>
      <trkpt lat="45.57959" lon="6.00971">
        <ele>471</ele>
        <time>2021-05-15T17:08:28Z</time>
      </trkpt>
      <trkpt lat="45.5795" lon="6.00986">
        <ele>472</ele>
        <time>2021-05-15T17:08:47Z</time>
      </trkpt>
      <trkpt lat="45.57952" lon="6.01003">
        <ele>471</ele>
        <time>2021-05-15T17:09:03Z</time>
      </trkpt>
      <trkpt lat="45.57948" lon="6.01009">
        <ele>473</ele>
        <time>2021-05-15T17:09:11Z</time>
      </trkpt>
      <trkpt lat="45.57938" lon="6.01005">
        <ele>476</ele>
        <time>2021-05-15T17:09:24Z</time>
      </trkpt>
      <trkpt lat="45.57936" lon="6.01014">
        <ele>477</ele>
        <time>2021-05-15T17:09:33Z</time>
      </trkpt>
      <trkpt lat="45.57927" lon="6.01013">
        <ele>480</ele>
        <time>2021-05-15T17:09:45Z</time>
      </trkpt>
      <trkpt lat="45.57924" lon="6.01014">
        <ele>481</ele>
        <time>2021-05-15T17:09:49Z</time>
      </trkpt>
      <trkpt lat="45.57921" lon="6.01027">
        <ele>483</ele>
        <time>2021-05-15T17:10:02Z</time>
      </trkpt>
      <trkpt lat="45.57912" lon="6.0105">
        <ele>486</ele>
        <time>2021-05-15T17:10:27Z</time>
      </trkpt>
      <trkpt lat="45.57911" lon="6.01063">
        <ele>487</ele>
        <time>2021-05-15T17:10:39Z</time>
      </trkpt>
      <trkpt lat="45.57913" lon="6.01091">
        <ele>491</ele>
        <time>2021-05-15T17:11:05Z</time>
      </trkpt>
      <trkpt lat="45.5792" lon="6.0111">
        <ele>496</ele>
        <time>2021-05-15T17:11:25Z</time>
      </trkpt>
      <trkpt lat="45.5792" lon="6.01118">
        <ele>499</ele>
        <time>2021-05-15T17:11:33Z</time>
      </trkpt>
      <trkpt lat="45.57881" lon="6.01157">
        <ele>506</ele>
        <time>2021-05-15T17:12:36Z</time>
      </trkpt>
      <trkpt lat="45.57875" lon="6.01164">
        <ele>506</ele>
        <time>2021-05-15T17:12:47Z</time>
      </trkpt>
      <trkpt lat="45.57873" lon="6.01169">
        <ele>507</ele>
        <time>2021-05-15T17:12:52Z</time>
      </trkpt>
      <trkpt lat="45.57875" lon="6.01175">
        <ele>510</ele>
        <time>2021-05-15T17:12:58Z</time>
      </trkpt>
      <trkpt lat="45.57879" lon="6.01179">
        <ele>512</ele>
        <time>2021-05-15T17:13:05Z</time>
      </trkpt>
      <trkpt lat="45.57892" lon="6.01179">
        <ele>515</ele>
        <time>2021-05-15T17:13:22Z</time>
      </trkpt>
      <trkpt lat="45.57925" lon="6.01189">
        <ele>521</ele>
        <time>2021-05-15T17:14:07Z</time>
      </trkpt>
      <trkpt lat="45.57927" lon="6.01192">
        <ele>521</ele>
        <time>2021-05-15T17:14:11Z</time>
      </trkpt>
      <trkpt lat="45.57928" lon="6.01199">
        <ele>523</ele>
        <time>2021-05-15T17:14:18Z</time>
      </trkpt>
      <trkpt lat="45.57917" lon="6.01228">
        <ele>538</ele>
        <time>2021-05-15T17:14:49Z</time>
      </trkpt>
      <trkpt lat="45.57902" lon="6.01232">
        <ele>537</ele>
        <time>2021-05-15T17:15:09Z</time>
      </trkpt>
      <trkpt lat="45.57893" lon="6.01241">
        <ele>539</ele>
        <time>2021-05-15T17:15:24Z</time>
      </trkpt>
      <trkpt lat="45.57889" lon="6.01248">
        <ele>541</ele>
        <time>2021-05-15T17:15:32Z</time>
      </trkpt>
      <trkpt lat="45.57886" lon="6.01259">
        <ele>543</ele>
        <time>2021-05-15T17:15:43Z</time>
      </trkpt>
      <trkpt lat="45.57883" lon="6.01288">
        <ele>550</ele>
        <time>2021-05-15T17:16:10Z</time>
      </trkpt>
      <trkpt lat="45.5785" lon="6.01373">
        <ele>567</ele>
        <time>2021-05-15T17:17:41Z</time>
      </trkpt>
      <trkpt lat="45.57847" lon="6.01376">
        <ele>567</ele>
        <time>2021-05-15T17:17:46Z</time>
      </trkpt>
      <trkpt lat="45.57843" lon="6.01388">
        <ele>570</ele>
        <time>2021-05-15T17:17:58Z</time>
      </trkpt>
      <trkpt lat="45.57815" lon="6.01439">
        <ele>576</ele>
        <time>2021-05-15T17:18:59Z</time>
      </trkpt>
      <trkpt lat="45.57763" lon="6.0149">
        <ele>585</ele>
        <time>2021-05-15T17:20:23Z</time>
      </trkpt>
      <trkpt lat="45.57751" lon="6.01498">
        <ele>588</ele>
        <time>2021-05-15T17:20:41Z</time>
      </trkpt>
      <trkpt lat="45.57678" lon="6.0152">
        <ele>591</ele>
        <time>2021-05-15T17:22:20Z</time>
      </trkpt>
      <trkpt lat="45.57675" lon="6.01522">
        <ele>591</ele>
        <time>2021-05-15T17:22:25Z</time>
      </trkpt>
      <trkpt lat="45.57661" lon="6.0154">
        <ele>595</ele>
        <time>2021-05-15T17:22:50Z</time>
      </trkpt>
      <trkpt lat="45.57636" lon="6.01606">
        <ele>607</ele>
        <time>2021-05-15T17:24:00Z</time>
      </trkpt>
      <trkpt lat="45.57603" lon="6.01637">
        <ele>614</ele>
        <time>2021-05-15T17:24:53Z</time>
      </trkpt>
      <trkpt lat="45.57578" lon="6.01668">
        <ele>623</ele>
        <time>2021-05-15T17:25:37Z</time>
      </trkpt>
      <trkpt lat="45.57522" lon="6.01708">
        <ele>637</ele>
        <time>2021-05-15T17:27:00Z</time>
      </trkpt>
      <trkpt lat="45.5752" lon="6.01701">
        <ele>637</ele>
        <time>2021-05-15T17:27:08Z</time>
      </trkpt>
      <trkpt lat="45.57499" lon="6.01698">
        <ele>640</ele>
        <time>2021-05-15T17:27:36Z</time>
      </trkpt>
      <trkpt lat="45.57493" lon="6.01692">
        <ele>639</ele>
        <time>2021-05-15T17:27:45Z</time>
      </trkpt>
      <trkpt lat="45.57472" lon="6.01664">
        <ele>638</ele>
        <time>2021-05-15T17:28:24Z</time>
      </trkpt>
      <trkpt lat="45.57452" lon="6.01618">
        <ele>632</ele>
        <time>2021-05-15T17:29:14Z</time>
      </trkpt>
      <trkpt lat="45.57451" lon="6.01603">
        <ele>629</ele>
        <time>2021-05-15T17:29:28Z</time>
      </trkpt>
      <trkpt lat="45.57465" lon="6.01549">
        <ele>614</ele>
        <time>2021-05-15T17:30:22Z</time>
      </trkpt>
      <trkpt lat="45.57463" lon="6.0154">
        <ele>612</ele>
        <time>2021-05-15T17:30:31Z</time>
      </trkpt>
      <trkpt lat="45.57441" lon="6.0153">
        <ele>612</ele>
        <time>2021-05-15T17:31:02Z</time>
      </trkpt>
      <trkpt lat="45.57411" lon="6.01525">
        <ele>611</ele>
        <time>2021-05-15T17:31:42Z</time>
      </trkpt>
      <trkpt lat="45.57388" lon="6.01508">
        <ele>600</ele>
        <time>2021-05-15T17:32:17Z</time>
      </trkpt>
      <trkpt lat="45.57387" lon="6.01488">
        <ele>594</ele>
        <time>2021-05-15T17:32:35Z</time>
      </trkpt>
      <trkpt lat="45.5735" lon="6.01443">
        <ele>574</ele>
        <time>2021-05-15T17:33:40Z</time>
      </trkpt>
      <trkpt lat="45.57341" lon="6.01441">
        <ele>572</ele>
        <time>2021-05-15T17:33:52Z</time>
      </trkpt>
      <trkpt lat="45.57336" lon="6.01447">
        <ele>572</ele>
        <time>2021-05-15T17:34:01Z</time>
      </trkpt>
      <trkpt lat="45.57334" lon="6.01478">
        <ele>580</ele>
        <time>2021-05-15T17:34:30Z</time>
      </trkpt>
      <trkpt lat="45.57326" lon="6.01507">
        <ele>584</ele>
        <time>2021-05-15T17:34:59Z</time>
      </trkpt>
      <trkpt lat="45.57294" lon="6.01536">
        <ele>579</ele>
        <time>2021-05-15T17:35:50Z</time>
      </trkpt>
      <trkpt lat="45.57265" lon="6.01533">
        <ele>569</ele>
        <time>2021-05-15T17:36:29Z</time>
      </trkpt>
      <trkpt lat="45.57251" lon="6.01542">
        <ele>566</ele>
        <time>2021-05-15T17:36:49Z</time>
      </trkpt>
      <trkpt lat="45.57237" lon="6.01568">
        <ele>569</ele>
        <time>2021-05-15T17:37:20Z</time>
      </trkpt>
      <trkpt lat="45.57219" lon="6.01583">
        <ele>568</ele>
        <time>2021-05-15T17:37:48Z</time>
      </trkpt>
      <trkpt lat="45.57214" lon="6.01599">
        <ele>569</ele>
        <time>2021-05-15T17:38:04Z</time>
      </trkpt>
      <trkpt lat="45.57216" lon="6.01624">
        <ele>571</ele>
        <time>2021-05-15T17:38:28Z</time>
      </trkpt>
      <trkpt lat="45.57202" lon="6.01623">
        <ele>569</ele>
        <time>2021-05-15T17:38:46Z</time>
      </trkpt>
      <trkpt lat="45.57193" lon="6.01609">
        <ele>566</ele>
        <time>2021-05-15T17:39:04Z</time>
      </trkpt>
      <trkpt lat="45.57189" lon="6.01617">
        <ele>565</ele>
        <time>2021-05-15T17:39:13Z</time>
      </trkpt>
      <trkpt lat="45.57172" lon="6.01632">
        <ele>563</ele>
        <time>2021-05-15T17:39:40Z</time>
      </trkpt>
      <trkpt lat="45.57167" lon="6.01643">
        <ele>563</ele>
        <time>2021-05-15T17:39:52Z</time>
      </trkpt>
      <trkpt lat="45.57156" lon="6.01652">
        <ele>564</ele>
        <time>2021-05-15T17:40:09Z</time>
      </trkpt>
      <trkpt lat="45.57148" lon="6.01652">
        <ele>564</ele>
        <time>2021-05-15T17:40:20Z</time>
      </trkpt>
      <trkpt lat="45.57136" lon="6.01667">
        <ele>565</ele>
        <time>2021-05-15T17:40:41Z</time>
      </trkpt>
      <trkpt lat="45.57124" lon="6.01672">
        <ele>566</ele>
        <time>2021-05-15T17:40:58Z</time>
      </trkpt>
      <trkpt lat="45.57116" lon="6.01699">
        <ele>570</ele>
        <time>2021-05-15T17:41:25Z</time>
      </trkpt>
      <trkpt lat="45.57098" lon="6.01709">
        <ele>571</ele>
        <time>2021-05-15T17:41:51Z</time>
      </trkpt>
      <trkpt lat="45.57082" lon="6.01731">
        <ele>571</ele>
        <time>2021-05-15T17:42:20Z</time>
      </trkpt>
      <trkpt lat="45.57056" lon="6.01749">
        <ele>572</ele>
        <time>2021-05-15T17:42:59Z</time>
      </trkpt>
      <trkpt lat="45.57052" lon="6.01761">
        <ele>574</ele>
        <time>2021-05-15T17:43:11Z</time>
      </trkpt>
      <trkpt lat="45.57046" lon="6.01766">
        <ele>575</ele>
        <time>2021-05-15T17:43:21Z</time>
      </trkpt>
      <trkpt lat="45.57033" lon="6.01767">
        <ele>574</ele>
        <time>2021-05-15T17:43:38Z</time>
      </trkpt>
      <trkpt lat="45.57021" lon="6.01775">
        <ele>574</ele>
        <time>2021-05-15T17:43:56Z</time>
      </trkpt>
      <trkpt lat="45.57" lon="6.01778">
        <ele>573</ele>
        <time>2021-05-15T17:44:24Z</time>
      </trkpt>
      <trkpt lat="45.56995" lon="6.0178">
        <ele>573</ele>
        <time>2021-05-15T17:44:31Z</time>
      </trkpt>
      <trkpt lat="45.56984" lon="6.01807">
        <ele>576</ele>
        <time>2021-05-15T17:45:00Z</time>
      </trkpt>
      <trkpt lat="45.56975" lon="6.01815">
        <ele>576</ele>
        <time>2021-05-15T17:45:14Z</time>
      </trkpt>
      <trkpt lat="45.56969" lon="6.01824">
        <ele>576</ele>
        <time>2021-05-15T17:45:26Z</time>
      </trkpt>
      <trkpt lat="45.56976" lon="6.01834">
        <ele>578</ele>
        <time>2021-05-15T17:45:39Z</time>
      </trkpt>
      <trkpt lat="45.56955" lon="6.01844">
        <ele>578</ele>
        <time>2021-05-15T17:46:09Z</time>
      </trkpt>
      <trkpt lat="45.56923" lon="6.01878">
        <ele>583</ele>
        <time>2021-05-15T17:47:02Z</time>
      </trkpt>
      <trkpt lat="45.56913" lon="6.01883">
        <ele>583</ele>
        <time>2021-05-15T17:47:16Z</time>
      </trkpt>
      <trkpt lat="45.56909" lon="6.01892">
        <ele>585</ele>
        <time>2021-05-15T17:47:26Z</time>
      </trkpt>
      <trkpt lat="45.56899" lon="6.01895">
        <ele>586</ele>
        <time>2021-05-15T17:47:40Z</time>
      </trkpt>
      <trkpt lat="45.56883" lon="6.0189">
        <ele>586</ele>
        <time>2021-05-15T17:48:01Z</time>
      </trkpt>
      <trkpt lat="45.56866" lon="6.0188">
        <ele>585</ele>
        <time>2021-05-15T17:48:26Z</time>
      </trkpt>
      <trkpt lat="45.56857" lon="6.01881">
        <ele>586</ele>
        <time>2021-05-15T17:48:38Z</time>
      </trkpt>
      <trkpt lat="45.56849" lon="6.01896">
        <ele>587</ele>
        <time>2021-05-15T17:48:56Z</time>
      </trkpt>
      <trkpt lat="45.56848" lon="6.01911">
        <ele>587</ele>
        <time>2021-05-15T17:49:10Z</time>
      </trkpt>
      <trkpt lat="45.56841" lon="6.01919">
        <ele>588</ele>
        <time>2021-05-15T17:49:22Z</time>
      </trkpt>
      <trkpt lat="45.56821" lon="6.01927">
        <ele>592</ele>
        <time>2021-05-15T17:49:49Z</time>
      </trkpt>
      <trkpt lat="45.56796" lon="6.01925">
        <ele>595</ele>
        <time>2021-05-15T17:50:23Z</time>
      </trkpt>
      <trkpt lat="45.56796" lon="6.01923">
        <ele>595</ele>
        <time>2021-05-15T17:50:25Z</time>
      </trkpt>
      <trkpt lat="45.568" lon="6.01901">
        <ele>593</ele>
        <time>2021-05-15T17:50:46Z</time>
      </trkpt>
      <trkpt lat="45.56802" lon="6.01892">
        <ele>593</ele>
        <time>2021-05-15T17:50:55Z</time>
      </trkpt>
      <trkpt lat="45.56796" lon="6.01888">
        <ele>595</ele>
        <time>2021-05-15T17:51:03Z</time>
      </trkpt>
      <trkpt lat="45.56784" lon="6.01889">
        <ele>597</ele>
        <time>2021-05-15T17:51:20Z</time>
      </trkpt>
      <trkpt lat="45.56773" lon="6.01893">
        <ele>599</ele>
        <time>2021-05-15T17:51:35Z</time>
      </trkpt>
      <trkpt lat="45.56766" lon="6.01889">
        <ele>601</ele>
        <time>2021-05-15T17:51:45Z</time>
      </trkpt>
      <trkpt lat="45.56752" lon="6.01895">
        <ele>603</ele>
        <time>2021-05-15T17:52:04Z</time>
      </trkpt>
      <trkpt lat="45.5674" lon="6.01884">
        <ele>608</ele>
        <time>2021-05-15T17:52:23Z</time>
      </trkpt>
      <trkpt lat="45.5676" lon="6.01857">
        <ele>606</ele>
        <time>2021-05-15T17:53:00Z</time>
      </trkpt>
      <trkpt lat="45.56784" lon="6.01835">
        <ele>602</ele>
        <time>2021-05-15T17:53:38Z</time>
      </trkpt>
      <trkpt lat="45.56808" lon="6.01837">
        <ele>594</ele>
        <time>2021-05-15T17:54:10Z</time>
      </trkpt>
      <trkpt lat="45.5682" lon="6.01824">
        <ele>594</ele>
        <time>2021-05-15T17:54:30Z</time>
      </trkpt>
      <trkpt lat="45.56836" lon="6.01783">
        <ele>601</ele>
        <time>2021-05-15T17:55:14Z</time>
      </trkpt>
      <trkpt lat="45.56927" lon="6.01622">
        <ele>617</ele>
        <time>2021-05-15T17:58:27Z</time>
      </trkpt>
      <trkpt lat="45.56957" lon="6.01588">
        <ele>617</ele>
        <time>2021-05-15T17:59:18Z</time>
      </trkpt>
      <trkpt lat="45.56986" lon="6.01524">
        <ele>620</ele>
        <time>2021-05-15T18:00:30Z</time>
      </trkpt>
      <trkpt lat="45.5698" lon="6.01507">
        <ele>625</ele>
        <time>2021-05-15T18:00:47Z</time>
      </trkpt>
      <trkpt lat="45.56963" lon="6.01476">
        <ele>636</ele>
        <time>2021-05-15T18:01:24Z</time>
      </trkpt>
      <trkpt lat="45.56946" lon="6.01429">
        <ele>646</ele>
        <time>2021-05-15T18:02:14Z</time>
      </trkpt>
      <trkpt lat="45.56943" lon="6.01408">
        <ele>649</ele>
        <time>2021-05-15T18:02:34Z</time>
      </trkpt>
      <trkpt lat="45.56945" lon="6.01388">
        <ele>653</ele>
        <time>2021-05-15T18:02:53Z</time>
      </trkpt>
      <trkpt lat="45.5695" lon="6.01379">
        <ele>654</ele>
        <time>2021-05-15T18:03:03Z</time>
      </trkpt>
      <trkpt lat="45.56986" lon="6.01373">
        <ele>650</ele>
        <time>2021-05-15T18:03:52Z</time>
      </trkpt>
      <trkpt lat="45.56999" lon="6.01367">
        <ele>650</ele>
        <time>2021-05-15T18:04:10Z</time>
      </trkpt>
      <trkpt lat="45.57012" lon="6.0135">
        <ele>649</ele>
        <time>2021-05-15T18:04:33Z</time>
      </trkpt>
      <trkpt lat="45.5701" lon="6.01342">
        <ele>652</ele>
        <time>2021-05-15T18:04:41Z</time>
      </trkpt>
      <trkpt lat="45.57" lon="6.0134">
        <ele>656</ele>
        <time>2021-05-15T18:04:55Z</time>
      </trkpt>
      <trkpt lat="45.56993" lon="6.01331">
        <ele>658</ele>
        <time>2021-05-15T18:05:07Z</time>
      </trkpt>
      <trkpt lat="45.56974" lon="6.01284">
        <ele>666</ele>
        <time>2021-05-15T18:05:58Z</time>
      </trkpt>
      <trkpt lat="45.56935" lon="6.01238">
        <ele>679</ele>
        <time>2021-05-15T18:07:06Z</time>
      </trkpt>
      <trkpt lat="45.56905" lon="6.01224">
        <ele>686</ele>
        <time>2021-05-15T18:07:48Z</time>
      </trkpt>
      <trkpt lat="45.56894" lon="6.01194">
        <ele>688</ele>
        <time>2021-05-15T18:08:19Z</time>
      </trkpt>
      <trkpt lat="45.56867" lon="6.01181">
        <ele>691</ele>
        <time>2021-05-15T18:08:57Z</time>
      </trkpt>
      <trkpt lat="45.56841" lon="6.01179">
        <ele>693</ele>
        <time>2021-05-15T18:09:32Z</time>
      </trkpt>
      <trkpt lat="45.56781" lon="6.012">
        <ele>697</ele>
        <time>2021-05-15T18:10:55Z</time>
      </trkpt>
      <trkpt lat="45.56766" lon="6.01186">
        <ele>698</ele>
        <time>2021-05-15T18:11:18Z</time>
      </trkpt>
      <trkpt lat="45.56763" lon="6.01174">
        <ele>698</ele>
        <time>2021-05-15T18:11:30Z</time>
      </trkpt>
      <trkpt lat="45.5674" lon="6.01104">
        <ele>697</ele>
        <time>2021-05-15T18:12:43Z</time>
      </trkpt>
      <trkpt lat="45.5673" lon="6.01015">
        <ele>700</ele>
        <time>2021-05-15T18:14:07Z</time>
      </trkpt>
      <trkpt lat="45.5673" lon="6.00994">
        <ele>701</ele>
        <time>2021-05-15T18:14:26Z</time>
      </trkpt>
      <trkpt lat="45.56734" lon="6.00959">
        <ele>703</ele>
        <time>2021-05-15T18:15:00Z</time>
      </trkpt>
      <trkpt lat="45.56749" lon="6.00924">
        <ele>705</ele>
        <time>2021-05-15T18:15:38Z</time>
      </trkpt>
      <trkpt lat="45.56745" lon="6.00918">
        <ele>706</ele>
        <time>2021-05-15T18:15:46Z</time>
      </trkpt>
      <trkpt lat="45.56739" lon="6.00896">
        <ele>708</ele>
        <time>2021-05-15T18:16:08Z</time>
      </trkpt>
      <trkpt lat="45.56731" lon="6.00852">
        <ele>711</ele>
        <time>2021-05-15T18:16:50Z</time>
      </trkpt>
      <trkpt lat="45.56725" lon="6.00834">
        <ele>712</ele>
        <time>2021-05-15T18:17:09Z</time>
      </trkpt>
      <trkpt lat="45.56722" lon="6.0083">
        <ele>712</ele>
        <time>2021-05-15T18:17:14Z</time>
      </trkpt>
      <trkpt lat="45.56733" lon="6.00793">
        <ele>714</ele>
        <time>2021-05-15T18:17:52Z</time>
      </trkpt>
      <trkpt lat="45.56736" lon="6.00787">
        <ele>714</ele>
        <time>2021-05-15T18:17:59Z</time>
      </trkpt>
      <trkpt lat="45.56773" lon="6.00774">
        <ele>714</ele>
        <time>2021-05-15T18:18:50Z</time>
      </trkpt>
      <trkpt lat="45.5678" lon="6.00768">
        <ele>715</ele>
        <time>2021-05-15T18:19:00Z</time>
      </trkpt>
      <trkpt lat="45.56795" lon="6.00747">
        <ele>716</ele>
        <time>2021-05-15T18:19:29Z</time>
      </trkpt>
      <trkpt lat="45.56804" lon="6.00702">
        <ele>720</ele>
        <time>2021-05-15T18:20:12Z</time>
      </trkpt>
      <trkpt lat="45.56806" lon="6.00679">
        <ele>722</ele>
        <time>2021-05-15T18:20:34Z</time>
      </trkpt>
      <trkpt lat="45.5685" lon="6.00601">
        <ele>728</ele>
        <time>2021-05-15T18:22:07Z</time>
      </trkpt>
      <trkpt lat="45.56897" lon="6.00557">
        <ele>733</ele>
        <time>2021-05-15T18:23:22Z</time>
      </trkpt>
      <trkpt lat="45.56798" lon="6.00478">
        <ele>741</ele>
        <time>2021-05-15T18:25:54Z</time>
      </trkpt>
      <trkpt lat="45.56802" lon="6.00411">
        <ele>748</ele>
        <time>2021-05-15T18:26:57Z</time>
      </trkpt>
      <trkpt lat="45.56798" lon="6.00389">
        <ele>751</ele>
        <time>2021-05-15T18:27:18Z</time>
      </trkpt>
      <trkpt lat="45.56788" lon="6.00369">
        <ele>755</ele>
        <time>2021-05-15T18:27:41Z</time>
      </trkpt>
      <trkpt lat="45.56777" lon="6.0036">
        <ele>759</ele>
        <time>2021-05-15T18:27:58Z</time>
      </trkpt>
      <trkpt lat="45.56767" lon="6.00351">
        <ele>762</ele>
        <time>2021-05-15T18:28:13Z</time>
      </trkpt>
      <trkpt lat="45.56738" lon="6.00356">
        <ele>767</ele>
        <time>2021-05-15T18:28:52Z</time>
      </trkpt>
      <trkpt lat="45.56747" lon="6.00293">
        <ele>774</ele>
        <time>2021-05-15T18:29:53Z</time>
      </trkpt>
      <trkpt lat="45.56738" lon="6.00258">
        <ele>779</ele>
        <time>2021-05-15T18:30:27Z</time>
      </trkpt>
      <trkpt lat="45.56714" lon="6.00244">
        <ele>782</ele>
        <time>2021-05-15T18:31:02Z</time>
      </trkpt>
      <trkpt lat="45.5671" lon="6.00241">
        <ele>783</ele>
        <time>2021-05-15T18:31:08Z</time>
      </trkpt>
      <trkpt lat="45.56694" lon="6.00239">
        <ele>784</ele>
        <time>2021-05-15T18:31:29Z</time>
      </trkpt>
      <trkpt lat="45.56688" lon="6.00241">
        <ele>785</ele>
        <time>2021-05-15T18:31:38Z</time>
      </trkpt>
      <trkpt lat="45.56646" lon="6.00262">
        <ele>786</ele>
        <time>2021-05-15T18:32:37Z</time>
      </trkpt>
      <trkpt lat="45.56613" lon="6.00273">
        <ele>786</ele>
        <time>2021-05-15T18:33:22Z</time>
      </trkpt>
      <trkpt lat="45.566" lon="6.00274">
        <ele>787</ele>
        <time>2021-05-15T18:33:40Z</time>
      </trkpt>
      <trkpt lat="45.56581" lon="6.0027">
        <ele>787</ele>
        <time>2021-05-15T18:34:05Z</time>
      </trkpt>
      <trkpt lat="45.56564" lon="6.00256">
        <ele>788</ele>
        <time>2021-05-15T18:34:31Z</time>
      </trkpt>
      <trkpt lat="45.56526" lon="6.00206">
        <ele>787</ele>
        <time>2021-05-15T18:35:40Z</time>
      </trkpt>
      <trkpt lat="45.56521" lon="6.00193">
        <ele>788</ele>
        <time>2021-05-15T18:35:54Z</time>
      </trkpt>
      <trkpt lat="45.56516" lon="6.00169">
        <ele>788</ele>
        <time>2021-05-15T18:36:18Z</time>
      </trkpt>
      <trkpt lat="45.56499" lon="6.00125">
        <ele>786</ele>
        <time>2021-05-15T18:37:05Z</time>
      </trkpt>
      <trkpt lat="45.56495" lon="6.00113">
        <ele>785</ele>
        <time>2021-05-15T18:37:17Z</time>
      </trkpt>
      <trkpt lat="45.56491" lon="6.00121">
        <ele>786</ele>
        <time>2021-05-15T18:37:26Z</time>
      </trkpt>
      <trkpt lat="45.56485" lon="6.00142">
        <ele>787</ele>
        <time>2021-05-15T18:37:47Z</time>
      </trkpt>
      <trkpt lat="45.56483" lon="6.00151">
        <ele>787</ele>
        <time>2021-05-15T18:37:56Z</time>
      </trkpt>
      <trkpt lat="45.56481" lon="6.0016">
        <ele>788</ele>
        <time>2021-05-15T18:38:05Z</time>
      </trkpt>
      <trkpt lat="45.56478" lon="6.00171">
        <ele>787</ele>
        <time>2021-05-15T18:38:16Z</time>
      </trkpt>
      <trkpt lat="45.56476" lon="6.00176">
        <ele>787</ele>
        <time>2021-05-15T18:38:21Z</time>
      </trkpt>
      <trkpt lat="45.56473" lon="6.00177">
        <ele>787</ele>
        <time>2021-05-15T18:38:26Z</time>
      </trkpt>
      <trkpt lat="45.56465" lon="6.00174">
        <ele>787</ele>
        <time>2021-05-15T18:38:37Z</time>
      </trkpt>
      <trkpt lat="45.56455" lon="6.00165">
        <ele>788</ele>
        <time>2021-05-15T18:38:52Z</time>
      </trkpt>
      <trkpt lat="45.56405" lon="6.00109">
        <ele>793</ele>
        <time>2021-05-15T18:40:17Z</time>
      </trkpt>
      <trkpt lat="45.56395" lon="6.00101">
        <ele>793</ele>
        <time>2021-05-15T18:40:32Z</time>
      </trkpt>
      <trkpt lat="45.56381" lon="6.00097">
        <ele>794</ele>
        <time>2021-05-15T18:40:51Z</time>
      </trkpt>
      <trkpt lat="45.56361" lon="6.00086">
        <ele>794</ele>
        <time>2021-05-15T18:41:20Z</time>
      </trkpt>
      <trkpt lat="45.56355" lon="6.00085">
        <ele>794</ele>
        <time>2021-05-15T18:41:28Z</time>
      </trkpt>
      <trkpt lat="45.56351" lon="6.00085">
        <ele>794</ele>
        <time>2021-05-15T18:41:33Z</time>
      </trkpt>
      <trkpt lat="45.5634" lon="6.0008">
        <ele>794</ele>
        <time>2021-05-15T18:41:49Z</time>
      </trkpt>
      <trkpt lat="45.56324" lon="6.00067">
        <ele>793</ele>
        <time>2021-05-15T18:42:13Z</time>
      </trkpt>
      <trkpt lat="45.56316" lon="6.00051">
        <ele>791</ele>
        <time>2021-05-15T18:42:32Z</time>
      </trkpt>
      <trkpt lat="45.56315" lon="6.00043">
        <ele>791</ele>
        <time>2021-05-15T18:42:39Z</time>
      </trkpt>
      <trkpt lat="45.56315" lon="6.00027">
        <ele>791</ele>
        <time>2021-05-15T18:42:54Z</time>
      </trkpt>
      <trkpt lat="45.56315" lon="6.00024">
        <ele>791</ele>
        <time>2021-05-15T18:42:57Z</time>
      </trkpt>
      <trkpt lat="45.5631" lon="6.00016">
        <ele>790</ele>
        <time>2021-05-15T18:43:07Z</time>
      </trkpt>
      <trkpt lat="45.56298" lon="6.00003">
        <ele>788</ele>
        <time>2021-05-15T18:43:27Z</time>
      </trkpt>
      <trkpt lat="45.56288" lon="5.99987">
        <ele>783</ele>
        <time>2021-05-15T18:43:47Z</time>
      </trkpt>
      <trkpt lat="45.56268" lon="5.99934">
        <ele>770</ele>
        <time>2021-05-15T18:44:44Z</time>
      </trkpt>
      <trkpt lat="45.56264" lon="5.99912">
        <ele>766</ele>
        <time>2021-05-15T18:45:05Z</time>
      </trkpt>
      <trkpt lat="45.56263" lon="5.99896">
        <ele>761</ele>
        <time>2021-05-15T18:45:20Z</time>
      </trkpt>
      <trkpt lat="45.56261" lon="5.99889">
        <ele>759</ele>
        <time>2021-05-15T18:45:27Z</time>
      </trkpt>
      <trkpt lat="45.5626" lon="5.99885">
        <ele>758</ele>
        <time>2021-05-15T18:45:31Z</time>
      </trkpt>
      <trkpt lat="45.56258" lon="5.99887">
        <ele>758</ele>
        <time>2021-05-15T18:45:34Z</time>
      </trkpt>
      <trkpt lat="45.56258" lon="5.99885">
        <ele>758</ele>
        <time>2021-05-15T18:45:36Z</time>
      </trkpt>
      <trkpt lat="45.56257" lon="5.99881">
        <ele>757</ele>
        <time>2021-05-15T18:45:40Z</time>
      </trkpt>
      <trkpt lat="45.56249" lon="5.99894">
        <ele>758</ele>
        <time>2021-05-15T18:45:56Z</time>
      </trkpt>
      <trkpt lat="45.56226" lon="5.9994">
        <ele>757</ele>
        <time>2021-05-15T18:46:49Z</time>
      </trkpt>
      <trkpt lat="45.56214" lon="5.99989">
        <ele>761</ele>
        <time>2021-05-15T18:47:37Z</time>
      </trkpt>
      <trkpt lat="45.56212" lon="6.00014">
        <ele>764</ele>
        <time>2021-05-15T18:48:01Z</time>
      </trkpt>
      <trkpt lat="45.56195" lon="6.00107">
        <ele>766</ele>
        <time>2021-05-15T18:49:31Z</time>
      </trkpt>
      <trkpt lat="45.56186" lon="6.00172">
        <ele>766</ele>
        <time>2021-05-15T18:50:33Z</time>
      </trkpt>
      <trkpt lat="45.56186" lon="6.00194">
        <ele>765</ele>
        <time>2021-05-15T18:50:53Z</time>
      </trkpt>
      <trkpt lat="45.56194" lon="6.00234">
        <ele>765</ele>
        <time>2021-05-15T18:51:32Z</time>
      </trkpt>
      <trkpt lat="45.5619" lon="6.00248">
        <ele>765</ele>
        <time>2021-05-15T18:51:46Z</time>
      </trkpt>
      <trkpt lat="45.56182" lon="6.00263">
        <ele>765</ele>
        <time>2021-05-15T18:52:04Z</time>
      </trkpt>
      <trkpt lat="45.56166" lon="6.00263">
        <ele>766</ele>
        <time>2021-05-15T18:52:25Z</time>
      </trkpt>
      <trkpt lat="45.56146" lon="6.0026">
        <ele>768</ele>
        <time>2021-05-15T18:52:52Z</time>
      </trkpt>
      <trkpt lat="45.56134" lon="6.00252">
        <ele>769</ele>
        <time>2021-05-15T18:53:10Z</time>
      </trkpt>
      <trkpt lat="45.56119" lon="6.0023">
        <ele>768</ele>
        <time>2021-05-15T18:53:38Z</time>
      </trkpt>
      <trkpt lat="45.56095" lon="6.00214">
        <ele>767</ele>
        <time>2021-05-15T18:54:14Z</time>
      </trkpt>
      <trkpt lat="45.56063" lon="6.00215">
        <ele>769</ele>
        <time>2021-05-15T18:54:56Z</time>
      </trkpt>
      <trkpt lat="45.56044" lon="6.0022">
        <ele>771</ele>
        <time>2021-05-15T18:55:22Z</time>
      </trkpt>
      <trkpt lat="45.56023" lon="6.00225">
        <ele>774</ele>
        <time>2021-05-15T18:55:51Z</time>
      </trkpt>
      <trkpt lat="45.55994" lon="6.00252">
        <ele>785</ele>
        <time>2021-05-15T18:56:37Z</time>
      </trkpt>
      <trkpt lat="45.55971" lon="6.00292">
        <ele>795</ele>
        <time>2021-05-15T18:57:25Z</time>
      </trkpt>
      <trkpt lat="45.55949" lon="6.00344">
        <ele>808</ele>
        <time>2021-05-15T18:58:22Z</time>
      </trkpt>
      <trkpt lat="45.5593" lon="6.00395">
        <ele>820</ele>
        <time>2021-05-15T18:59:16Z</time>
      </trkpt>
      <trkpt lat="45.55912" lon="6.00437">
        <ele>828</ele>
        <time>2021-05-15T19:00:02Z</time>
      </trkpt>
      <trkpt lat="45.55897" lon="6.00464">
        <ele>832</ele>
        <time>2021-05-15T19:00:34Z</time>
      </trkpt>
      <trkpt lat="45.55887" lon="6.00491">
        <ele>835</ele>
        <time>2021-05-15T19:01:03Z</time>
      </trkpt>
      <trkpt lat="45.55876" lon="6.00508">
        <ele>837</ele>
        <time>2021-05-15T19:01:24Z</time>
      </trkpt>
      <trkpt lat="45.55865" lon="6.00513">
        <ele>838</ele>
        <time>2021-05-15T19:01:40Z</time>
      </trkpt>
      <trkpt lat="45.55856" lon="6.00508">
        <ele>839</ele>
        <time>2021-05-15T19:01:53Z</time>
      </trkpt>
      <trkpt lat="45.55807" lon="6.00428">
        <ele>839</ele>
        <time>2021-05-15T19:03:32Z</time>
      </trkpt>
      <trkpt lat="45.55791" lon="6.00414">
        <ele>839</ele>
        <time>2021-05-15T19:03:57Z</time>
      </trkpt>
      <trkpt lat="45.55777" lon="6.0041">
        <ele>839</ele>
        <time>2021-05-15T19:04:16Z</time>
      </trkpt>
      <trkpt lat="45.55761" lon="6.00412">
        <ele>841</ele>
        <time>2021-05-15T19:04:37Z</time>
      </trkpt>
      <trkpt lat="45.55751" lon="6.0042">
        <ele>842</ele>
        <time>2021-05-15T19:04:53Z</time>
      </trkpt>
      <trkpt lat="45.55746" lon="6.00431">
        <ele>843</ele>
        <time>2021-05-15T19:05:05Z</time>
      </trkpt>
      <trkpt lat="45.55733" lon="6.00472">
        <ele>847</ele>
        <time>2021-05-15T19:05:47Z</time>
      </trkpt>
      <trkpt lat="45.5572" lon="6.00502">
        <ele>848</ele>
        <time>2021-05-15T19:06:20Z</time>
      </trkpt>
      <trkpt lat="45.55714" lon="6.00506">
        <ele>848</ele>
        <time>2021-05-15T19:06:29Z</time>
      </trkpt>
      <trkpt lat="45.55705" lon="6.00504">
        <ele>849</ele>
        <time>2021-05-15T19:06:41Z</time>
      </trkpt>
      <trkpt lat="45.55699" lon="6.005">
        <ele>849</ele>
        <time>2021-05-15T19:06:50Z</time>
      </trkpt>
      <trkpt lat="45.55698" lon="6.00459">
        <ele>848</ele>
        <time>2021-05-15T19:07:28Z</time>
      </trkpt>
      <trkpt lat="45.55621" lon="6.00456">
        <ele>853</ele>
        <time>2021-05-15T19:09:11Z</time>
      </trkpt>
      <trkpt lat="45.55575" lon="6.00447">
        <ele>856</ele>
        <time>2021-05-15T19:10:13Z</time>
      </trkpt>
      <trkpt lat="45.55556" lon="6.00435">
        <ele>854</ele>
        <time>2021-05-15T19:10:41Z</time>
      </trkpt>
      <trkpt lat="45.55521" lon="6.00406">
        <ele>852</ele>
        <time>2021-05-15T19:11:35Z</time>
      </trkpt>
      <trkpt lat="45.55502" lon="6.00402">
        <ele>851</ele>
        <time>2021-05-15T19:12:00Z</time>
      </trkpt>
      <trkpt lat="45.55488" lon="6.00382">
        <ele>849</ele>
        <time>2021-05-15T19:12:27Z</time>
      </trkpt>
      <trkpt lat="45.55477" lon="6.00355">
        <ele>848</ele>
        <time>2021-05-15T19:12:56Z</time>
      </trkpt>
      <trkpt lat="45.55438" lon="6.00327">
        <ele>846</ele>
        <time>2021-05-15T19:13:54Z</time>
      </trkpt>
      <trkpt lat="45.55418" lon="6.00318">
        <ele>845</ele>
        <time>2021-05-15T19:14:22Z</time>
      </trkpt>
      <trkpt lat="45.55387" lon="6.00296">
        <ele>846</ele>
        <time>2021-05-15T19:15:08Z</time>
      </trkpt>
      <trkpt lat="45.55351" lon="6.0028">
        <ele>850</ele>
        <time>2021-05-15T19:15:59Z</time>
      </trkpt>
      <trkpt lat="45.55326" lon="6.00271">
        <ele>854</ele>
        <time>2021-05-15T19:16:33Z</time>
      </trkpt>
      <trkpt lat="45.55319" lon="6.00268">
        <ele>856</ele>
        <time>2021-05-15T19:16:43Z</time>
      </trkpt>
      <trkpt lat="45.5528" lon="6.0026">
        <ele>864</ele>
        <time>2021-05-15T19:17:35Z</time>
      </trkpt>
      <trkpt lat="45.55265" lon="6.00263">
        <ele>865</ele>
        <time>2021-05-15T19:17:56Z</time>
      </trkpt>
      <trkpt lat="45.55239" lon="6.00262">
        <ele>867</ele>
        <time>2021-05-15T19:18:30Z</time>
      </trkpt>
      <trkpt lat="45.55197" lon="6.00255">
        <ele>868</ele>
        <time>2021-05-15T19:19:27Z</time>
      </trkpt>
      <trkpt lat="45.55159" lon="6.00242">
        <ele>869</ele>
        <time>2021-05-15T19:20:19Z</time>
      </trkpt>
      <trkpt lat="45.5515" lon="6.00233">
        <ele>868</ele>
        <time>2021-05-15T19:20:34Z</time>
      </trkpt>
      <trkpt lat="45.55145" lon="6.00225">
        <ele>868</ele>
        <time>2021-05-15T19:20:44Z</time>
      </trkpt>
      <trkpt lat="45.55143" lon="6.00217">
        <ele>869</ele>
        <time>2021-05-15T19:20:51Z</time>
      </trkpt>
      <trkpt lat="45.55139" lon="6.00201">
        <ele>870</ele>
        <time>2021-05-15T19:21:07Z</time>
      </trkpt>
      <trkpt lat="45.55132" lon="6.00191">
        <ele>871</ele>
        <time>2021-05-15T19:21:21Z</time>
      </trkpt>
      <trkpt lat="45.5513" lon="6.00186">
        <ele>872</ele>
        <time>2021-05-15T19:21:26Z</time>
      </trkpt>
      <trkpt lat="45.55119" lon="6.00186">
        <ele>871</ele>
        <time>2021-05-15T19:21:41Z</time>
      </trkpt>
      <trkpt lat="45.55115" lon="6.00188">
        <ele>871</ele>
        <time>2021-05-15T19:21:46Z</time>
      </trkpt>
      <trkpt lat="45.5511" lon="6.00197">
        <ele>869</ele>
        <time>2021-05-15T19:21:57Z</time>
      </trkpt>
      <trkpt lat="45.55105" lon="6.00198">
        <ele>869</ele>
        <time>2021-05-15T19:22:04Z</time>
      </trkpt>
      <trkpt lat="45.55093" lon="6.00198">
        <ele>868</ele>
        <time>2021-05-15T19:22:20Z</time>
      </trkpt>
      <trkpt lat="45.55105" lon="6.00198">
        <ele>869</ele>
        <time>2021-05-15T19:22:36Z</time>
      </trkpt>
      <trkpt lat="45.5511" lon="6.00197">
        <ele>869</ele>
        <time>2021-05-15T19:22:43Z</time>
      </trkpt>
      <trkpt lat="45.55115" lon="6.00188">
        <ele>871</ele>
        <time>2021-05-15T19:22:53Z</time>
      </trkpt>
      <trkpt lat="45.55119" lon="6.00186">
        <ele>871</ele>
        <time>2021-05-15T19:22:59Z</time>
      </trkpt>
      <trkpt lat="45.5513" lon="6.00186">
        <ele>872</ele>
        <time>2021-05-15T19:23:14Z</time>
      </trkpt>
      <trkpt lat="45.55132" lon="6.00191">
        <ele>871</ele>
        <time>2021-05-15T19:23:19Z</time>
      </trkpt>
      <trkpt lat="45.55139" lon="6.00201">
        <ele>870</ele>
        <time>2021-05-15T19:23:32Z</time>
      </trkpt>
      <trkpt lat="45.55143" lon="6.00217">
        <ele>869</ele>
        <time>2021-05-15T19:23:48Z</time>
      </trkpt>
      <trkpt lat="45.55145" lon="6.00225">
        <ele>868</ele>
        <time>2021-05-15T19:23:56Z</time>
      </trkpt>
      <trkpt lat="45.5515" lon="6.00233">
        <ele>868</ele>
        <time>2021-05-15T19:24:06Z</time>
      </trkpt>
      <trkpt lat="45.55159" lon="6.00242">
        <ele>869</ele>
        <time>2021-05-15T19:24:21Z</time>
      </trkpt>
      <trkpt lat="45.55197" lon="6.00255">
        <ele>868</ele>
        <time>2021-05-15T19:25:13Z</time>
      </trkpt>
      <trkpt lat="45.55239" lon="6.00262">
        <ele>867</ele>
        <time>2021-05-15T19:26:09Z</time>
      </trkpt>
      <trkpt lat="45.55265" lon="6.00263">
        <ele>865</ele>
        <time>2021-05-15T19:26:44Z</time>
      </trkpt>
      <trkpt lat="45.5528" lon="6.0026">
        <ele>864</ele>
        <time>2021-05-15T19:27:04Z</time>
      </trkpt>
      <trkpt lat="45.55319" lon="6.00268">
        <ele>856</ele>
        <time>2021-05-15T19:27:57Z</time>
      </trkpt>
      <trkpt lat="45.55276" lon="6.0029">
        <ele>855</ele>
        <time>2021-05-15T19:28:58Z</time>
      </trkpt>
      <trkpt lat="45.55201" lon="6.00324">
        <ele>844</ele>
        <time>2021-05-15T19:30:43Z</time>
      </trkpt>
      <trkpt lat="45.55097" lon="6.00301">
        <ele>835</ele>
        <time>2021-05-15T19:33:03Z</time>
      </trkpt>
      <trkpt lat="45.55033" lon="6.00276">
        <ele>818</ele>
        <time>2021-05-15T19:34:32Z</time>
      </trkpt>
      <trkpt lat="45.55015" lon="6.00256">
        <ele>819</ele>
        <time>2021-05-15T19:35:02Z</time>
      </trkpt>
      <trkpt lat="45.54966" lon="6.0018">
        <ele>811</ele>
        <time>2021-05-15T19:36:39Z</time>
      </trkpt>
      <trkpt lat="45.5495" lon="6.00141">
        <ele>804</ele>
        <time>2021-05-15T19:37:21Z</time>
      </trkpt>
      <trkpt lat="45.54936" lon="6.00112">
        <ele>796</ele>
        <time>2021-05-15T19:37:54Z</time>
      </trkpt>
      <trkpt lat="45.54936" lon="6.00094">
        <ele>795</ele>
        <time>2021-05-15T19:38:11Z</time>
      </trkpt>
      <trkpt lat="45.54938" lon="6.0008">
        <ele>795</ele>
        <time>2021-05-15T19:38:24Z</time>
      </trkpt>
      <trkpt lat="45.54932" lon="6.00072">
        <ele>791</ele>
        <time>2021-05-15T19:38:35Z</time>
      </trkpt>
      <trkpt lat="45.54924" lon="6.00075">
        <ele>788</ele>
        <time>2021-05-15T19:38:46Z</time>
      </trkpt>
      <trkpt lat="45.54907" lon="6.00104">
        <ele>782</ele>
        <time>2021-05-15T19:39:21Z</time>
      </trkpt>
      <trkpt lat="45.54912" lon="6.00133">
        <ele>785</ele>
        <time>2021-05-15T19:39:49Z</time>
      </trkpt>
      <trkpt lat="45.54913" lon="6.00151">
        <ele>785</ele>
        <time>2021-05-15T19:40:06Z</time>
      </trkpt>
      <trkpt lat="45.54903" lon="6.00183">
        <ele>777</ele>
        <time>2021-05-15T19:40:39Z</time>
      </trkpt>
      <trkpt lat="45.54896" lon="6.00174">
        <ele>776</ele>
        <time>2021-05-15T19:40:51Z</time>
      </trkpt>
      <trkpt lat="45.54883" lon="6.00141">
        <ele>771</ele>
        <time>2021-05-15T19:41:27Z</time>
      </trkpt>
      <trkpt lat="45.54873" lon="6.00149">
        <ele>767</ele>
        <time>2021-05-15T19:41:42Z</time>
      </trkpt>
      <trkpt lat="45.54869" lon="6.00165">
        <ele>765</ele>
        <time>2021-05-15T19:41:58Z</time>
      </trkpt>
      <trkpt lat="45.54858" lon="6.00166">
        <ele>760</ele>
        <time>2021-05-15T19:42:13Z</time>
      </trkpt>
      <trkpt lat="45.54846" lon="6.00157">
        <ele>754</ele>
        <time>2021-05-15T19:42:31Z</time>
      </trkpt>
      <trkpt lat="45.54831" lon="6.00046">
        <ele>742</ele>
        <time>2021-05-15T19:44:16Z</time>
      </trkpt>
      <trkpt lat="45.54819" lon="6.00009">
        <ele>736</ele>
        <time>2021-05-15T19:44:55Z</time>
      </trkpt>
      <trkpt lat="45.54813" lon="5.99989">
        <ele>732</ele>
        <time>2021-05-15T19:45:15Z</time>
      </trkpt>
      <trkpt lat="45.54823" lon="5.99982">
        <ele>733</ele>
        <time>2021-05-15T19:45:30Z</time>
      </trkpt>
      <trkpt lat="45.54853" lon="5.99984">
        <ele>742</ele>
        <time>2021-05-15T19:46:10Z</time>
      </trkpt>
      <trkpt lat="45.54861" lon="5.99979">
        <ele>743</ele>
        <time>2021-05-15T19:46:21Z</time>
      </trkpt>
      <trkpt lat="45.54868" lon="5.9998">
        <ele>745</ele>
        <time>2021-05-15T19:46:31Z</time>
      </trkpt>
      <trkpt lat="45.5492" lon="5.99943">
        <ele>746</ele>
        <time>2021-05-15T19:47:48Z</time>
      </trkpt>
      <trkpt lat="45.54926" lon="5.99945">
        <ele>747</ele>
        <time>2021-05-15T19:47:57Z</time>
      </trkpt>
      <trkpt lat="45.54976" lon="5.99932">
        <ele>746</ele>
        <time>2021-05-15T19:49:04Z</time>
      </trkpt>
      <trkpt lat="45.5499" lon="5.99933">
        <ele>747</ele>
        <time>2021-05-15T19:49:23Z</time>
      </trkpt>
      <trkpt lat="45.55007" lon="5.99925">
        <ele>743</ele>
        <time>2021-05-15T19:49:47Z</time>
      </trkpt>
      <trkpt lat="45.55016" lon="5.99925">
        <ele>744</ele>
        <time>2021-05-15T19:49:59Z</time>
      </trkpt>
      <trkpt lat="45.55038" lon="5.99932">
        <ele>749</ele>
        <time>2021-05-15T19:50:29Z</time>
      </trkpt>
      <trkpt lat="45.55056" lon="5.9993">
        <ele>749</ele>
        <time>2021-05-15T19:50:53Z</time>
      </trkpt>
      <trkpt lat="45.55061" lon="5.99923">
        <ele>744</ele>
        <time>2021-05-15T19:51:03Z</time>
      </trkpt>
      <trkpt lat="45.55082" lon="5.99919">
        <ele>741</ele>
        <time>2021-05-15T19:51:31Z</time>
      </trkpt>
      <trkpt lat="45.55132" lon="5.99935">
        <ele>747</ele>
        <time>2021-05-15T19:52:39Z</time>
      </trkpt>
      <trkpt lat="45.55146" lon="5.99937">
        <ele>747</ele>
        <time>2021-05-15T19:52:58Z</time>
      </trkpt>
      <trkpt lat="45.55156" lon="5.99931">
        <ele>740</ele>
        <time>2021-05-15T19:53:12Z</time>
      </trkpt>
      <trkpt lat="45.55175" lon="5.99928">
        <ele>736</ele>
        <time>2021-05-15T19:53:38Z</time>
      </trkpt>
      <trkpt lat="45.55192" lon="5.99933">
        <ele>739</ele>
        <time>2021-05-15T19:54:01Z</time>
      </trkpt>
      <trkpt lat="45.55232" lon="5.99927">
        <ele>732</ele>
        <time>2021-05-15T19:54:55Z</time>
      </trkpt>
      <trkpt lat="45.55248" lon="5.99935">
        <ele>737</ele>
        <time>2021-05-15T19:55:17Z</time>
      </trkpt>
      <trkpt lat="45.55261" lon="5.99938">
        <ele>738</ele>
        <time>2021-05-15T19:55:35Z</time>
      </trkpt>
      <trkpt lat="45.55275" lon="5.99929">
        <ele>730</ele>
        <time>2021-05-15T19:55:55Z</time>
      </trkpt>
      <trkpt lat="45.55279" lon="5.99931">
        <ele>731</ele>
        <time>2021-05-15T19:56:01Z</time>
      </trkpt>
      <trkpt lat="45.55297" lon="5.99926">
        <ele>726</ele>
        <time>2021-05-15T19:56:26Z</time>
      </trkpt>
      <trkpt lat="45.55302" lon="5.99929">
        <ele>727</ele>
        <time>2021-05-15T19:56:33Z</time>
      </trkpt>
      <trkpt lat="45.55324" lon="5.99932">
        <ele>728</ele>
        <time>2021-05-15T19:57:02Z</time>
      </trkpt>
      <trkpt lat="45.55332" lon="5.9993">
        <ele>725</ele>
        <time>2021-05-15T19:57:13Z</time>
      </trkpt>
      <trkpt lat="45.55342" lon="5.99922">
        <ele>719</ele>
        <time>2021-05-15T19:57:28Z</time>
      </trkpt>
      <trkpt lat="45.55348" lon="5.99925">
        <ele>720</ele>
        <time>2021-05-15T19:57:37Z</time>
      </trkpt>
      <trkpt lat="45.55358" lon="5.99922">
        <ele>716</ele>
        <time>2021-05-15T19:57:51Z</time>
      </trkpt>
      <trkpt lat="45.55363" lon="5.99916">
        <ele>712</ele>
        <time>2021-05-15T19:57:59Z</time>
      </trkpt>
      <trkpt lat="45.55372" lon="5.99915">
        <ele>710</ele>
        <time>2021-05-15T19:58:11Z</time>
      </trkpt>
      <trkpt lat="45.55384" lon="5.99904">
        <ele>701</ele>
        <time>2021-05-15T19:58:30Z</time>
      </trkpt>
      <trkpt lat="45.554" lon="5.99907">
        <ele>700</ele>
        <time>2021-05-15T19:58:52Z</time>
      </trkpt>
      <trkpt lat="45.55408" lon="5.99902">
        <ele>695</ele>
        <time>2021-05-15T19:59:04Z</time>
      </trkpt>
      <trkpt lat="45.55436" lon="5.99898">
        <ele>688</ele>
        <time>2021-05-15T19:59:41Z</time>
      </trkpt>
      <trkpt lat="45.55443" lon="5.999">
        <ele>688</ele>
        <time>2021-05-15T19:59:51Z</time>
      </trkpt>
      <trkpt lat="45.55458" lon="5.9989">
        <ele>679</ele>
        <time>2021-05-15T20:00:13Z</time>
      </trkpt>
      <trkpt lat="45.5548" lon="5.99895">
        <ele>679</ele>
        <time>2021-05-15T20:00:42Z</time>
      </trkpt>
      <trkpt lat="45.55493" lon="5.99893">
        <ele>676</ele>
        <time>2021-05-15T20:01:00Z</time>
      </trkpt>
      <trkpt lat="45.55513" lon="5.99879">
        <ele>665</ele>
        <time>2021-05-15T20:01:30Z</time>
      </trkpt>
      <trkpt lat="45.55531" lon="5.99873">
        <ele>660</ele>
        <time>2021-05-15T20:01:54Z</time>
      </trkpt>
      <trkpt lat="45.55537" lon="5.99867">
        <ele>656</ele>
        <time>2021-05-15T20:02:04Z</time>
      </trkpt>
      <trkpt lat="45.55542" lon="5.99866">
        <ele>655</ele>
        <time>2021-05-15T20:02:11Z</time>
      </trkpt>
      <trkpt lat="45.55548" lon="5.99858">
        <ele>651</ele>
        <time>2021-05-15T20:02:22Z</time>
      </trkpt>
      <trkpt lat="45.55561" lon="5.99851">
        <ele>647</ele>
        <time>2021-05-15T20:02:40Z</time>
      </trkpt>
      <trkpt lat="45.55607" lon="5.99845">
        <ele>644</ele>
        <time>2021-05-15T20:03:42Z</time>
      </trkpt>
      <trkpt lat="45.55609" lon="5.99845">
        <ele>644</ele>
        <time>2021-05-15T20:03:45Z</time>
      </trkpt>
      <trkpt lat="45.55614" lon="5.99845">
        <ele>644</ele>
        <time>2021-05-15T20:03:51Z</time>
      </trkpt>
      <trkpt lat="45.55639" lon="5.99838">
        <ele>642</ele>
        <time>2021-05-15T20:04:25Z</time>
      </trkpt>
      <trkpt lat="45.55644" lon="5.99838">
        <ele>642</ele>
        <time>2021-05-15T20:04:32Z</time>
      </trkpt>
      <trkpt lat="45.55655" lon="5.99827">
        <ele>638</ele>
        <time>2021-05-15T20:04:50Z</time>
      </trkpt>
      <trkpt lat="45.55662" lon="5.9983">
        <ele>640</ele>
        <time>2021-05-15T20:05:00Z</time>
      </trkpt>
      <trkpt lat="45.55668" lon="5.99818">
        <ele>636</ele>
        <time>2021-05-15T20:05:13Z</time>
      </trkpt>
      <trkpt lat="45.55703" lon="5.99833">
        <ele>639</ele>
        <time>2021-05-15T20:06:02Z</time>
      </trkpt>
      <trkpt lat="45.55725" lon="5.99836">
        <ele>639</ele>
        <time>2021-05-15T20:06:32Z</time>
      </trkpt>
      <trkpt lat="45.55745" lon="5.99823">
        <ele>635</ele>
        <time>2021-05-15T20:07:01Z</time>
      </trkpt>
      <trkpt lat="45.55756" lon="5.9981">
        <ele>632</ele>
        <time>2021-05-15T20:07:20Z</time>
      </trkpt>
      <trkpt lat="45.55771" lon="5.99781">
        <ele>626</ele>
        <time>2021-05-15T20:07:54Z</time>
      </trkpt>
      <trkpt lat="45.5577" lon="5.99772">
        <ele>624</ele>
        <time>2021-05-15T20:08:02Z</time>
      </trkpt>
      <trkpt lat="45.55759" lon="5.99761">
        <ele>622</ele>
        <time>2021-05-15T20:08:20Z</time>
      </trkpt>
      <trkpt lat="45.55755" lon="5.9975">
        <ele>620</ele>
        <time>2021-05-15T20:08:32Z</time>
      </trkpt>
      <trkpt lat="45.55763" lon="5.99737">
        <ele>620</ele>
        <time>2021-05-15T20:08:48Z</time>
      </trkpt>
      <trkpt lat="45.5587" lon="5.99726">
        <ele>618</ele>
        <time>2021-05-15T20:11:11Z</time>
      </trkpt>
      <trkpt lat="45.55921" lon="5.99698">
        <ele>614</ele>
        <time>2021-05-15T20:12:24Z</time>
      </trkpt>
      <trkpt lat="45.55963" lon="5.99681">
        <ele>612</ele>
        <time>2021-05-15T20:13:22Z</time>
      </trkpt>
      <trkpt lat="45.55983" lon="5.99667">
        <ele>609</ele>
        <time>2021-05-15T20:13:52Z</time>
      </trkpt>
      <trkpt lat="45.55996" lon="5.99656">
        <ele>605</ele>
        <time>2021-05-15T20:14:12Z</time>
      </trkpt>
      <trkpt lat="45.56006" lon="5.9965">
        <ele>603</ele>
        <time>2021-05-15T20:14:27Z</time>
      </trkpt>
      <trkpt lat="45.56015" lon="5.99647">
        <ele>603</ele>
        <time>2021-05-15T20:14:39Z</time>
      </trkpt>
      <trkpt lat="45.5604" lon="5.99644">
        <ele>604</ele>
        <time>2021-05-15T20:15:12Z</time>
      </trkpt>
      <trkpt lat="45.56065" lon="5.99649">
        <ele>608</ele>
        <time>2021-05-15T20:15:46Z</time>
      </trkpt>
      <trkpt lat="45.56084" lon="5.99646">
        <ele>609</ele>
        <time>2021-05-15T20:16:12Z</time>
      </trkpt>
      <trkpt lat="45.56101" lon="5.99638">
        <ele>614</ele>
        <time>2021-05-15T20:16:35Z</time>
      </trkpt>
      <trkpt lat="45.56115" lon="5.99621">
        <ele>616</ele>
        <time>2021-05-15T20:17:00Z</time>
      </trkpt>
      <trkpt lat="45.56118" lon="5.99606">
        <ele>613</ele>
        <time>2021-05-15T20:17:15Z</time>
      </trkpt>
      <trkpt lat="45.56117" lon="5.99599">
        <ele>610</ele>
        <time>2021-05-15T20:17:21Z</time>
      </trkpt>
      <trkpt lat="45.56111" lon="5.99583">
        <ele>602</ele>
        <time>2021-05-15T20:17:38Z</time>
      </trkpt>
      <trkpt lat="45.56106" lon="5.99578">
        <ele>598</ele>
        <time>2021-05-15T20:17:46Z</time>
      </trkpt>
      <trkpt lat="45.56104" lon="5.99572">
        <ele>595</ele>
        <time>2021-05-15T20:17:53Z</time>
      </trkpt>
      <trkpt lat="45.56105" lon="5.99565">
        <ele>595</ele>
        <time>2021-05-15T20:17:59Z</time>
      </trkpt>
      <trkpt lat="45.56117" lon="5.99542">
        <ele>598</ele>
        <time>2021-05-15T20:18:26Z</time>
      </trkpt>
      <trkpt lat="45.56122" lon="5.99528">
        <ele>598</ele>
        <time>2021-05-15T20:18:41Z</time>
      </trkpt>
      <trkpt lat="45.56118" lon="5.99521">
        <ele>594</ele>
        <time>2021-05-15T20:18:49Z</time>
      </trkpt>
      <trkpt lat="45.56114" lon="5.99521">
        <ele>591</ele>
        <time>2021-05-15T20:18:55Z</time>
      </trkpt>
      <trkpt lat="45.56112" lon="5.99524">
        <ele>591</ele>
        <time>2021-05-15T20:18:58Z</time>
      </trkpt>
      <trkpt lat="45.56106" lon="5.99543">
        <ele>591</ele>
        <time>2021-05-15T20:19:18Z</time>
      </trkpt>
      <trkpt lat="45.56095" lon="5.99559">
        <ele>587</ele>
        <time>2021-05-15T20:19:39Z</time>
      </trkpt>
      <trkpt lat="45.56091" lon="5.99568">
        <ele>586</ele>
        <time>2021-05-15T20:19:49Z</time>
      </trkpt>
      <trkpt lat="45.56092" lon="5.9958">
        <ele>590</ele>
        <time>2021-05-15T20:20:00Z</time>
      </trkpt>
      <trkpt lat="45.56094" lon="5.99592">
        <ele>595</ele>
        <time>2021-05-15T20:20:12Z</time>
      </trkpt>
      <trkpt lat="45.56092" lon="5.99599">
        <ele>596</ele>
        <time>2021-05-15T20:20:19Z</time>
      </trkpt>
      <trkpt lat="45.56089" lon="5.99599">
        <ele>594</ele>
        <time>2021-05-15T20:20:23Z</time>
      </trkpt>
      <trkpt lat="45.56082" lon="5.9956">
        <ele>579</ele>
        <time>2021-05-15T20:21:00Z</time>
      </trkpt>
      <trkpt lat="45.56085" lon="5.9955">
        <ele>578</ele>
        <time>2021-05-15T20:21:10Z</time>
      </trkpt>
      <trkpt lat="45.5609" lon="5.9954">
        <ele>579</ele>
        <time>2021-05-15T20:21:22Z</time>
      </trkpt>
      <trkpt lat="45.56093" lon="5.99531">
        <ele>579</ele>
        <time>2021-05-15T20:21:31Z</time>
      </trkpt>
      <trkpt lat="45.56092" lon="5.99519">
        <ele>576</ele>
        <time>2021-05-15T20:21:43Z</time>
      </trkpt>
      <trkpt lat="45.56083" lon="5.99507">
        <ele>567</ele>
        <time>2021-05-15T20:21:59Z</time>
      </trkpt>
      <trkpt lat="45.56079" lon="5.99498">
        <ele>563</ele>
        <time>2021-05-15T20:22:09Z</time>
      </trkpt>
      <trkpt lat="45.56078" lon="5.99487">
        <ele>561</ele>
        <time>2021-05-15T20:22:19Z</time>
      </trkpt>
      <trkpt lat="45.56088" lon="5.99459">
        <ele>564</ele>
        <time>2021-05-15T20:22:49Z</time>
      </trkpt>
      <trkpt lat="45.56089" lon="5.99446">
        <ele>564</ele>
        <time>2021-05-15T20:23:01Z</time>
      </trkpt>
      <trkpt lat="45.56084" lon="5.99424">
        <ele>558</ele>
        <time>2021-05-15T20:23:22Z</time>
      </trkpt>
      <trkpt lat="45.5608" lon="5.99402">
        <ele>552</ele>
        <time>2021-05-15T20:23:44Z</time>
      </trkpt>
      <trkpt lat="45.56069" lon="5.99374">
        <ele>541</ele>
        <time>2021-05-15T20:24:14Z</time>
      </trkpt>
      <trkpt lat="45.56065" lon="5.99357">
        <ele>535</ele>
        <time>2021-05-15T20:24:30Z</time>
      </trkpt>
      <trkpt lat="45.56063" lon="5.9934">
        <ele>531</ele>
        <time>2021-05-15T20:24:47Z</time>
      </trkpt>
      <trkpt lat="45.56063" lon="5.99309">
        <ele>526</ele>
        <time>2021-05-15T20:25:16Z</time>
      </trkpt>
      <trkpt lat="45.56067" lon="5.99285">
        <ele>523</ele>
        <time>2021-05-15T20:25:39Z</time>
      </trkpt>
      <trkpt lat="45.56065" lon="5.99282">
        <ele>522</ele>
        <time>2021-05-15T20:25:42Z</time>
      </trkpt>
      <trkpt lat="45.56062" lon="5.99282">
        <ele>520</ele>
        <time>2021-05-15T20:25:46Z</time>
      </trkpt>
      <trkpt lat="45.56054" lon="5.99292">
        <ele>518</ele>
        <time>2021-05-15T20:26:01Z</time>
      </trkpt>
      <trkpt lat="45.56048" lon="5.9931">
        <ele>517</ele>
        <time>2021-05-15T20:26:19Z</time>
      </trkpt>
      <trkpt lat="45.56036" lon="5.99352">
        <ele>517</ele>
        <time>2021-05-15T20:27:02Z</time>
      </trkpt>
      <trkpt lat="45.56037" lon="5.99366">
        <ele>520</ele>
        <time>2021-05-15T20:27:15Z</time>
      </trkpt>
      <trkpt lat="45.5604" lon="5.99374">
        <ele>523</ele>
        <time>2021-05-15T20:27:23Z</time>
      </trkpt>
      <trkpt lat="45.5604" lon="5.99384">
        <ele>524</ele>
        <time>2021-05-15T20:27:33Z</time>
      </trkpt>
      <trkpt lat="45.56028" lon="5.99409">
        <ele>521</ele>
        <time>2021-05-15T20:28:01Z</time>
      </trkpt>
      <trkpt lat="45.56024" lon="5.99439">
        <ele>525</ele>
        <time>2021-05-15T20:28:29Z</time>
      </trkpt>
      <trkpt lat="45.56018" lon="5.99451">
        <ele>526</ele>
        <time>2021-05-15T20:28:43Z</time>
      </trkpt>
      <trkpt lat="45.56011" lon="5.9946">
        <ele>525</ele>
        <time>2021-05-15T20:28:56Z</time>
      </trkpt>
      <trkpt lat="45.56005" lon="5.99456">
        <ele>520</ele>
        <time>2021-05-15T20:29:05Z</time>
      </trkpt>
      <trkpt lat="45.56003" lon="5.99451">
        <ele>518</ele>
        <time>2021-05-15T20:29:10Z</time>
      </trkpt>
      <trkpt lat="45.56003" lon="5.99444">
        <ele>515</ele>
        <time>2021-05-15T20:29:17Z</time>
      </trkpt>
      <trkpt lat="45.56008" lon="5.99434">
        <ele>515</ele>
        <time>2021-05-15T20:29:28Z</time>
      </trkpt>
      <trkpt lat="45.56009" lon="5.99425">
        <ele>512</ele>
        <time>2021-05-15T20:29:37Z</time>
      </trkpt>
      <trkpt lat="45.56003" lon="5.99427">
        <ele>509</ele>
        <time>2021-05-15T20:29:45Z</time>
      </trkpt>
      <trkpt lat="45.55995" lon="5.99432">
        <ele>509</ele>
        <time>2021-05-15T20:29:56Z</time>
      </trkpt>
      <trkpt lat="45.55963" lon="5.9944">
        <ele>511</ele>
        <time>2021-05-15T20:30:40Z</time>
      </trkpt>
      <trkpt lat="45.55958" lon="5.99439">
        <ele>510</ele>
        <time>2021-05-15T20:30:47Z</time>
      </trkpt>
      <trkpt lat="45.55956" lon="5.9943">
        <ele>506</ele>
        <time>2021-05-15T20:30:55Z</time>
      </trkpt>
      <trkpt lat="45.55969" lon="5.99421">
        <ele>503</ele>
        <time>2021-05-15T20:31:15Z</time>
      </trkpt>
      <trkpt lat="45.55979" lon="5.99402">
        <ele>499</ele>
        <time>2021-05-15T20:31:37Z</time>
      </trkpt>
      <trkpt lat="45.55988" lon="5.99392">
        <ele>499</ele>
        <time>2021-05-15T20:31:52Z</time>
      </trkpt>
      <trkpt lat="45.55993" lon="5.99378">
        <ele>498</ele>
        <time>2021-05-15T20:32:07Z</time>
      </trkpt>
      <trkpt lat="45.55994" lon="5.99364">
        <ele>496</ele>
        <time>2021-05-15T20:32:20Z</time>
      </trkpt>
      <trkpt lat="45.55981" lon="5.99337">
        <ele>488</ele>
        <time>2021-05-15T20:32:51Z</time>
      </trkpt>
      <trkpt lat="45.55968" lon="5.99322">
        <ele>481</ele>
        <time>2021-05-15T20:33:13Z</time>
      </trkpt>
      <trkpt lat="45.55953" lon="5.99288">
        <ele>470</ele>
        <time>2021-05-15T20:33:50Z</time>
      </trkpt>
      <trkpt lat="45.55971" lon="5.9919">
        <ele>458</ele>
        <time>2021-05-15T20:35:25Z</time>
      </trkpt>
      <trkpt lat="45.56014" lon="5.99144">
        <ele>461</ele>
        <time>2021-05-15T20:36:37Z</time>
      </trkpt>
      <trkpt lat="45.56032" lon="5.99093">
        <ele>450</ele>
        <time>2021-05-15T20:37:30Z</time>
      </trkpt>
      <trkpt lat="45.56083" lon="5.99025">
        <ele>443</ele>
        <time>2021-05-15T20:39:03Z</time>
      </trkpt>
      <trkpt lat="45.56106" lon="5.98984">
        <ele>433</ele>
        <time>2021-05-15T20:39:52Z</time>
      </trkpt>
      <trkpt lat="45.56168" lon="5.98933">
        <ele>426</ele>
        <time>2021-05-15T20:41:28Z</time>
      </trkpt>
      <trkpt lat="45.5621" lon="5.98902">
        <ele>426</ele>
        <time>2021-05-15T20:42:31Z</time>
      </trkpt>
      <trkpt lat="45.56231" lon="5.98872">
        <ele>421</ele>
        <time>2021-05-15T20:43:10Z</time>
      </trkpt>
      <trkpt lat="45.56244" lon="5.98837">
        <ele>414</ele>
        <time>2021-05-15T20:43:48Z</time>
      </trkpt>
      <trkpt lat="45.56235" lon="5.98836">
        <ele>411</ele>
        <time>2021-05-15T20:44:00Z</time>
      </trkpt>
      <trkpt lat="45.56215" lon="5.98842">
        <ele>407</ele>
        <time>2021-05-15T20:44:27Z</time>
      </trkpt>
      <trkpt lat="45.56186" lon="5.9884">
        <ele>399</ele>
        <time>2021-05-15T20:45:06Z</time>
      </trkpt>
      <trkpt lat="45.56141" lon="5.98845">
        <ele>391</ele>
        <time>2021-05-15T20:46:06Z</time>
      </trkpt>
      <trkpt lat="45.56103" lon="5.98833">
        <ele>380</ele>
        <time>2021-05-15T20:46:58Z</time>
      </trkpt>
      <trkpt lat="45.56035" lon="5.98803">
        <ele>368</ele>
        <time>2021-05-15T20:48:33Z</time>
      </trkpt>
      <trkpt lat="45.56024" lon="5.98785">
        <ele>363</ele>
        <time>2021-05-15T20:48:55Z</time>
      </trkpt>
      <trkpt lat="45.56093" lon="5.98755">
        <ele>362</ele>
        <time>2021-05-15T20:50:31Z</time>
      </trkpt>
      <trkpt lat="45.56137" lon="5.98739">
        <ele>365</ele>
        <time>2021-05-15T20:51:32Z</time>
      </trkpt>
      <trkpt lat="45.56177" lon="5.98739">
        <ele>370</ele>
        <time>2021-05-15T20:52:25Z</time>
      </trkpt>
      <trkpt lat="45.562" lon="5.98727">
        <ele>373</ele>
        <time>2021-05-15T20:52:58Z</time>
      </trkpt>
      <trkpt lat="45.56217" lon="5.98707">
        <ele>373</ele>
        <time>2021-05-15T20:53:27Z</time>
      </trkpt>
      <trkpt lat="45.56237" lon="5.98668">
        <ele>366</ele>
        <time>2021-05-15T20:54:12Z</time>
      </trkpt>
      <trkpt lat="45.56279" lon="5.98651">
        <ele>371</ele>
        <time>2021-05-15T20:55:11Z</time>
      </trkpt>
      <trkpt lat="45.56308" lon="5.98633">
        <ele>374</ele>
        <time>2021-05-15T20:55:53Z</time>
      </trkpt>
      <trkpt lat="45.56341" lon="5.9863">
        <ele>379</ele>
        <time>2021-05-15T20:56:37Z</time>
      </trkpt>
      <trkpt lat="45.5636" lon="5.98618">
        <ele>381</ele>
        <time>2021-05-15T20:57:05Z</time>
      </trkpt>
      <trkpt lat="45.5638" lon="5.98619">
        <ele>384</ele>
        <time>2021-05-15T20:57:31Z</time>
      </trkpt>
      <trkpt lat="45.564" lon="5.98609">
        <ele>386</ele>
        <time>2021-05-15T20:58:00Z</time>
      </trkpt>
      <trkpt lat="45.56422" lon="5.98602">
        <ele>388</ele>
        <time>2021-05-15T20:58:30Z</time>
      </trkpt>
      <trkpt lat="45.56442" lon="5.98594">
        <ele>389</ele>
        <time>2021-05-15T20:58:58Z</time>
      </trkpt>
      <trkpt lat="45.56498" lon="5.98559">
        <ele>387</ele>
        <time>2021-05-15T21:00:19Z</time>
      </trkpt>
      <trkpt lat="45.56511" lon="5.98555">
        <ele>386</ele>
        <time>2021-05-15T21:00:37Z</time>
      </trkpt>
      <trkpt lat="45.56523" lon="5.98557">
        <ele>387</ele>
        <time>2021-05-15T21:00:53Z</time>
      </trkpt>
      <trkpt lat="45.56564" lon="5.98567">
        <ele>389</ele>
        <time>2021-05-15T21:01:49Z</time>
      </trkpt>
      <trkpt lat="45.56602" lon="5.98581">
        <ele>390</ele>
        <time>2021-05-15T21:02:41Z</time>
      </trkpt>
      <trkpt lat="45.5662" lon="5.98584">
        <ele>391</ele>
        <time>2021-05-15T21:03:05Z</time>
      </trkpt>
      <trkpt lat="45.56639" lon="5.98581">
        <ele>390</ele>
        <time>2021-05-15T21:03:31Z</time>
      </trkpt>
      <trkpt lat="45.56666" lon="5.98574">
        <ele>389</ele>
        <time>2021-05-15T21:04:07Z</time>
      </trkpt>
      <trkpt lat="45.56686" lon="5.98566">
        <ele>388</ele>
        <time>2021-05-15T21:04:35Z</time>
      </trkpt>
      <trkpt lat="45.56703" lon="5.98555">
        <ele>387</ele>
        <time>2021-05-15T21:05:00Z</time>
      </trkpt>
      <trkpt lat="45.56732" lon="5.98548">
        <ele>387</ele>
        <time>2021-05-15T21:05:39Z</time>
      </trkpt>
      <trkpt lat="45.56738" lon="5.98549">
        <ele>387</ele>
        <time>2021-05-15T21:05:47Z</time>
      </trkpt>
      <trkpt lat="45.56763" lon="5.98541">
        <ele>386</ele>
        <time>2021-05-15T21:06:21Z</time>
      </trkpt>
      <trkpt lat="45.56769" lon="5.98514">
        <ele>381</ele>
        <time>2021-05-15T21:06:48Z</time>
      </trkpt>
      <trkpt lat="45.56772" lon="5.98484">
        <ele>374</ele>
        <time>2021-05-15T21:07:16Z</time>
      </trkpt>
      <trkpt lat="45.56771" lon="5.9847">
        <ele>369</ele>
        <time>2021-05-15T21:07:29Z</time>
      </trkpt>
      <trkpt lat="45.56774" lon="5.98468">
        <ele>369</ele>
        <time>2021-05-15T21:07:34Z</time>
      </trkpt>
      <trkpt lat="45.56805" lon="5.98459">
        <ele>362</ele>
        <time>2021-05-15T21:08:16Z</time>
      </trkpt>
      <trkpt lat="45.56828" lon="5.98456">
        <ele>358</ele>
        <time>2021-05-15T21:08:47Z</time>
      </trkpt>
      <trkpt lat="45.56875" lon="5.98441">
        <ele>349</ele>
        <time>2021-05-15T21:09:51Z</time>
      </trkpt>
      <trkpt lat="45.56923" lon="5.98417">
        <ele>336</ele>
        <time>2021-05-15T21:10:59Z</time>
      </trkpt>
      <trkpt lat="45.56934" lon="5.98408">
        <ele>335</ele>
        <time>2021-05-15T21:11:16Z</time>
      </trkpt>
      <trkpt lat="45.56954" lon="5.9837">
        <ele>326</ele>
        <time>2021-05-15T21:12:00Z</time>
      </trkpt>
      <trkpt lat="45.56975" lon="5.98342">
        <ele>319</ele>
        <time>2021-05-15T21:12:38Z</time>
      </trkpt>
      <trkpt lat="45.56973" lon="5.98331">
        <ele>316</ele>
        <time>2021-05-15T21:12:49Z</time>
      </trkpt>
      <trkpt lat="45.56979" lon="5.98316">
        <ele>315</ele>
        <time>2021-05-15T21:13:05Z</time>
      </trkpt>
      <trkpt lat="45.56991" lon="5.98294">
        <ele>312</ele>
        <time>2021-05-15T21:13:31Z</time>
      </trkpt>
      <trkpt lat="45.57009" lon="5.98234">
        <ele>307</ele>
        <time>2021-05-15T21:14:32Z</time>
      </trkpt>
      <trkpt lat="45.57009" lon="5.9821">
        <ele>307</ele>
        <time>2021-05-15T21:14:55Z</time>
      </trkpt>
      <trkpt lat="45.57007" lon="5.98194">
        <ele>307</ele>
        <time>2021-05-15T21:15:10Z</time>
      </trkpt>
      <trkpt lat="45.57015" lon="5.98185">
        <ele>307</ele>
        <time>2021-05-15T21:15:23Z</time>
      </trkpt>
      <trkpt lat="45.57008" lon="5.98179">
        <ele>306</ele>
        <time>2021-05-15T21:15:34Z</time>
      </trkpt>
      <trkpt lat="45.5701" lon="5.98164">
        <ele>306</ele>
        <time>2021-05-15T21:15:49Z</time>
      </trkpt>
      <trkpt lat="45.56937" lon="5.97945">
        <ele>303</ele>
        <time>2021-05-15T21:19:35Z</time>
      </trkpt>
      <trkpt lat="45.56951" lon="5.9793">
        <ele>303</ele>
        <time>2021-05-15T21:19:59Z</time>
      </trkpt>
      <trkpt lat="45.5698" lon="5.97889">
        <ele>304</ele>
        <time>2021-05-15T21:20:53Z</time>
      </trkpt>
      <trkpt lat="45.5699" lon="5.97873">
        <ele>304</ele>
        <time>2021-05-15T21:21:13Z</time>
      </trkpt>
      <trkpt lat="45.56979" lon="5.97862">
        <ele>304</ele>
        <time>2021-05-15T21:21:31Z</time>
      </trkpt>
      <trkpt lat="45.56976" lon="5.97853">
        <ele>304</ele>
        <time>2021-05-15T21:21:40Z</time>
      </trkpt>
      <trkpt lat="45.56978" lon="5.9781">
        <ele>305</ele>
        <time>2021-05-15T21:22:21Z</time>
      </trkpt>
      <trkpt lat="45.56977" lon="5.97796">
        <ele>305</ele>
        <time>2021-05-15T21:22:34Z</time>
      </trkpt>
      <trkpt lat="45.56972" lon="5.9777">
        <ele>305</ele>
        <time>2021-05-15T21:22:59Z</time>
      </trkpt>
      <trkpt lat="45.56931" lon="5.97659">
        <ele>305</ele>
        <time>2021-05-15T21:24:56Z</time>
      </trkpt>
      <trkpt lat="45.56928" lon="5.97653">
        <ele>305</ele>
        <time>2021-05-15T21:25:03Z</time>
      </trkpt>
      <trkpt lat="45.56922" lon="5.97648">
        <ele>305</ele>
        <time>2021-05-15T21:25:12Z</time>
      </trkpt>
      <trkpt lat="45.56925" lon="5.97626">
        <ele>305</ele>
        <time>2021-05-15T21:25:33Z</time>
      </trkpt>
      <trkpt lat="45.56919" lon="5.97607">
        <ele>305</ele>
        <time>2021-05-15T21:25:53Z</time>
      </trkpt>
      <trkpt lat="45.56912" lon="5.97607">
        <ele>305</ele>
        <time>2021-05-15T21:26:02Z</time>
      </trkpt>
      <trkpt lat="45.56887" lon="5.97616">
        <ele>305</ele>
        <time>2021-05-15T21:26:36Z</time>
      </trkpt>
    </trkseg>
  </trk>
</gpx>